<?xml version="1.0" encoding="UTF-8" standalone="no" ?>
<gpx xmlns="http://www.topografix.com/GPX/1/1" xmlns:xsi="http://www.w3.org/2001/XMLSchema-instance" xsi:schemaLocation="http://www.topografix.com/GPX/1/1 http://www.topografix.com/GPX/1/1/gpx.xsd" version="1.1" creator="VisuGPX - https://www.visugpx.com">
  <metadata>
    <name>Arlebosc</name>
    <desc><![CDATA[Variante sans passage au château de Chazotte.]]></desc>
  </metadata>
  <trk>
    <name><![CDATA[2019-05-30 08:44:49]]></name>
    <trkseg>
      <trkpt lat="45.03654" lon="4.65278">
        <ele>419.25</ele>
        <time>2019-05-30T06:44:55.000Z</time>
      </trkpt>
      <trkpt lat="45.03663" lon="4.65252">
        <ele>419.74</ele>
        <time>2019-05-30T06:45:15.000Z</time>
      </trkpt>
      <trkpt lat="45.03694" lon="4.65238">
        <ele>422.2</ele>
        <time>2019-05-30T06:45:35.000Z</time>
      </trkpt>
      <trkpt lat="45.03719" lon="4.65213">
        <ele>424.71</ele>
        <time>2019-05-30T06:45:55.000Z</time>
      </trkpt>
      <trkpt lat="45.03744" lon="4.6519">
        <ele>427.7</ele>
        <time>2019-05-30T06:46:15.000Z</time>
      </trkpt>
      <trkpt lat="45.03766" lon="4.65175">
        <ele>431.02</ele>
        <time>2019-05-30T06:46:35.000Z</time>
      </trkpt>
      <trkpt lat="45.0379" lon="4.65159">
        <ele>435.61</ele>
        <time>2019-05-30T06:46:55.000Z</time>
      </trkpt>
      <trkpt lat="45.03809" lon="4.65141">
        <ele>439.91</ele>
        <time>2019-05-30T06:47:15.000Z</time>
      </trkpt>
      <trkpt lat="45.03829" lon="4.65127">
        <ele>443.95</ele>
        <time>2019-05-30T06:47:35.000Z</time>
      </trkpt>
      <trkpt lat="45.0385" lon="4.65113">
        <ele>447.54</ele>
        <time>2019-05-30T06:47:55.000Z</time>
      </trkpt>
      <trkpt lat="45.03872" lon="4.65097">
        <ele>450.88</ele>
        <time>2019-05-30T06:48:15.000Z</time>
      </trkpt>
      <trkpt lat="45.03884" lon="4.65075">
        <ele>453.12</ele>
        <time>2019-05-30T06:48:35.000Z</time>
      </trkpt>
      <trkpt lat="45.03902" lon="4.65049">
        <ele>455.45</ele>
        <time>2019-05-30T06:48:55.000Z</time>
      </trkpt>
      <trkpt lat="45.03918" lon="4.65025">
        <ele>457.33</ele>
        <time>2019-05-30T06:49:15.000Z</time>
      </trkpt>
      <trkpt lat="45.03935" lon="4.64997">
        <ele>459.35</ele>
        <time>2019-05-30T06:49:35.000Z</time>
      </trkpt>
      <trkpt lat="45.03955" lon="4.64969">
        <ele>461.9</ele>
        <time>2019-05-30T06:49:55.000Z</time>
      </trkpt>
      <trkpt lat="45.0397" lon="4.64931">
        <ele>466.58</ele>
        <time>2019-05-30T06:50:15.000Z</time>
      </trkpt>
      <trkpt lat="45.03988" lon="4.64901">
        <ele>469.43</ele>
        <time>2019-05-30T06:50:35.000Z</time>
      </trkpt>
      <trkpt lat="45.04008" lon="4.64873">
        <ele>471.11</ele>
        <time>2019-05-30T06:50:55.000Z</time>
      </trkpt>
      <trkpt lat="45.04024" lon="4.6484">
        <ele>472.49</ele>
        <time>2019-05-30T06:51:15.000Z</time>
      </trkpt>
      <trkpt lat="45.0403" lon="4.648">
        <ele>474.77</ele>
        <time>2019-05-30T06:51:35.000Z</time>
      </trkpt>
      <trkpt lat="45.04025" lon="4.64754">
        <ele>477.9</ele>
        <time>2019-05-30T06:51:55.000Z</time>
      </trkpt>
      <trkpt lat="45.04025" lon="4.64707">
        <ele>480.38</ele>
        <time>2019-05-30T06:52:15.000Z</time>
      </trkpt>
      <trkpt lat="45.04041" lon="4.64673">
        <ele>481.33</ele>
        <time>2019-05-30T06:52:35.000Z</time>
      </trkpt>
      <trkpt lat="45.04056" lon="4.64631">
        <ele>484.2</ele>
        <time>2019-05-30T06:52:55.000Z</time>
      </trkpt>
      <trkpt lat="45.0409" lon="4.64626">
        <ele>483.45</ele>
        <time>2019-05-30T06:53:15.000Z</time>
      </trkpt>
      <trkpt lat="45.04123" lon="4.6461">
        <ele>483.74</ele>
        <time>2019-05-30T06:53:35.000Z</time>
      </trkpt>
      <trkpt lat="45.04153" lon="4.64602">
        <ele>482.68</ele>
        <time>2019-05-30T06:53:55.000Z</time>
      </trkpt>
      <trkpt lat="45.04168" lon="4.64616">
        <ele>480.58</ele>
        <time>2019-05-30T06:54:15.000Z</time>
      </trkpt>
      <trkpt lat="45.04168" lon="4.64623">
        <ele>480</ele>
        <time>2019-05-30T06:54:52.000Z</time>
      </trkpt>
      <trkpt lat="45.04199" lon="4.64631">
        <ele>478.22</ele>
        <time>2019-05-30T06:55:12.000Z</time>
      </trkpt>
      <trkpt lat="45.04222" lon="4.64614">
        <ele>478.84</ele>
        <time>2019-05-30T06:55:32.000Z</time>
      </trkpt>
      <trkpt lat="45.04253" lon="4.64592">
        <ele>478.67</ele>
        <time>2019-05-30T06:55:52.000Z</time>
      </trkpt>
      <trkpt lat="45.04281" lon="4.64576">
        <ele>475.56</ele>
        <time>2019-05-30T06:56:12.000Z</time>
      </trkpt>
      <trkpt lat="45.04309" lon="4.64545">
        <ele>472.09</ele>
        <time>2019-05-30T06:56:32.000Z</time>
      </trkpt>
      <trkpt lat="45.04291" lon="4.64491">
        <ele>481.13</ele>
        <time>2019-05-30T06:56:52.000Z</time>
      </trkpt>
      <trkpt lat="45.04303" lon="4.64463">
        <ele>480.72</ele>
        <time>2019-05-30T06:57:12.000Z</time>
      </trkpt>
      <trkpt lat="45.04336" lon="4.64452">
        <ele>474.17</ele>
        <time>2019-05-30T06:57:32.000Z</time>
      </trkpt>
      <trkpt lat="45.04349" lon="4.64401">
        <ele>476.21</ele>
        <time>2019-05-30T06:57:52.000Z</time>
      </trkpt>
      <trkpt lat="45.04355" lon="4.64354">
        <ele>478.92</ele>
        <time>2019-05-30T06:58:12.000Z</time>
      </trkpt>
      <trkpt lat="45.04353" lon="4.64307">
        <ele>481.42</ele>
        <time>2019-05-30T06:58:32.000Z</time>
      </trkpt>
      <trkpt lat="45.04362" lon="4.64273">
        <ele>480.8</ele>
        <time>2019-05-30T06:58:52.000Z</time>
      </trkpt>
      <trkpt lat="45.04369" lon="4.64236">
        <ele>482.99</ele>
        <time>2019-05-30T06:59:12.000Z</time>
      </trkpt>
      <trkpt lat="45.0437" lon="4.64199">
        <ele>488.05</ele>
        <time>2019-05-30T06:59:32.000Z</time>
      </trkpt>
      <trkpt lat="45.04376" lon="4.64157">
        <ele>494.41</ele>
        <time>2019-05-30T06:59:52.000Z</time>
      </trkpt>
      <trkpt lat="45.04392" lon="4.64115">
        <ele>500.36</ele>
        <time>2019-05-30T07:00:12.000Z</time>
      </trkpt>
      <trkpt lat="45.04418" lon="4.64093">
        <ele>502.35</ele>
        <time>2019-05-30T07:00:32.000Z</time>
      </trkpt>
      <trkpt lat="45.04436" lon="4.64117">
        <ele>500</ele>
        <time>2019-05-30T07:00:52.000Z</time>
      </trkpt>
      <trkpt lat="45.04443" lon="4.64157">
        <ele>496.87</ele>
        <time>2019-05-30T07:01:12.000Z</time>
      </trkpt>
      <trkpt lat="45.04446" lon="4.64175">
        <ele>495.19</ele>
        <time>2019-05-30T07:01:32.000Z</time>
      </trkpt>
      <trkpt lat="45.04467" lon="4.64196">
        <ele>497.82</ele>
        <time>2019-05-30T07:01:52.000Z</time>
      </trkpt>
      <trkpt lat="45.04489" lon="4.64217">
        <ele>500.8</ele>
        <time>2019-05-30T07:02:12.000Z</time>
      </trkpt>
      <trkpt lat="45.04508" lon="4.64241">
        <ele>502.22</ele>
        <time>2019-05-30T07:02:32.000Z</time>
      </trkpt>
      <trkpt lat="45.04526" lon="4.64264">
        <ele>503.39</ele>
        <time>2019-05-30T07:02:52.000Z</time>
      </trkpt>
      <trkpt lat="45.04534" lon="4.64299">
        <ele>501.08</ele>
        <time>2019-05-30T07:03:12.000Z</time>
      </trkpt>
      <trkpt lat="45.04533" lon="4.64337">
        <ele>495.71</ele>
        <time>2019-05-30T07:03:32.000Z</time>
      </trkpt>
      <trkpt lat="45.04538" lon="4.64374">
        <ele>493.7</ele>
        <time>2019-05-30T07:03:52.000Z</time>
      </trkpt>
      <trkpt lat="45.04546" lon="4.64411">
        <ele>492.9</ele>
        <time>2019-05-30T07:04:12.000Z</time>
      </trkpt>
      <trkpt lat="45.04555" lon="4.64448">
        <ele>491.23</ele>
        <time>2019-05-30T07:04:32.000Z</time>
      </trkpt>
      <trkpt lat="45.0456" lon="4.64488">
        <ele>486.4</ele>
        <time>2019-05-30T07:04:52.000Z</time>
      </trkpt>
      <trkpt lat="45.04576" lon="4.64522">
        <ele>484.2</ele>
        <time>2019-05-30T07:05:12.000Z</time>
      </trkpt>
      <trkpt lat="45.04597" lon="4.64549">
        <ele>483.59</ele>
        <time>2019-05-30T07:05:32.000Z</time>
      </trkpt>
      <trkpt lat="45.04612" lon="4.64576">
        <ele>483.27</ele>
        <time>2019-05-30T07:05:52.000Z</time>
      </trkpt>
      <trkpt lat="45.04643" lon="4.64565">
        <ele>490.24</ele>
        <time>2019-05-30T07:06:12.000Z</time>
      </trkpt>
      <trkpt lat="45.04662" lon="4.64541">
        <ele>498.36</ele>
        <time>2019-05-30T07:06:32.000Z</time>
      </trkpt>
      <trkpt lat="45.04681" lon="4.64553">
        <ele>502.42</ele>
        <time>2019-05-30T07:06:52.000Z</time>
      </trkpt>
      <trkpt lat="45.04696" lon="4.64537">
        <ele>509.72</ele>
        <time>2019-05-30T07:07:12.000Z</time>
      </trkpt>
      <trkpt lat="45.047" lon="4.64518">
        <ele>514.27</ele>
        <time>2019-05-30T07:07:32.000Z</time>
      </trkpt>
      <trkpt lat="45.04711" lon="4.64498">
        <ele>521.34</ele>
        <time>2019-05-30T07:07:52.000Z</time>
      </trkpt>
      <trkpt lat="45.04708" lon="4.64527">
        <ele>515.54</ele>
        <time>2019-05-30T07:08:12.000Z</time>
      </trkpt>
      <trkpt lat="45.04726" lon="4.64558">
        <ele>519.41</ele>
        <time>2019-05-30T07:08:32.000Z</time>
      </trkpt>
      <trkpt lat="45.04734" lon="4.64583">
        <ele>521.34</ele>
        <time>2019-05-30T07:08:52.000Z</time>
      </trkpt>
      <trkpt lat="45.04736" lon="4.646">
        <ele>521.56</ele>
        <time>2019-05-30T07:09:12.000Z</time>
      </trkpt>
      <trkpt lat="45.04731" lon="4.64629">
        <ele>520</ele>
        <time>2019-05-30T07:09:32.000Z</time>
      </trkpt>
      <trkpt lat="45.0472" lon="4.64661">
        <ele>516.45</ele>
        <time>2019-05-30T07:09:52.000Z</time>
      </trkpt>
      <trkpt lat="45.04713" lon="4.64697">
        <ele>514.66</ele>
        <time>2019-05-30T07:10:12.000Z</time>
      </trkpt>
      <trkpt lat="45.04697" lon="4.64731">
        <ele>510.4</ele>
        <time>2019-05-30T07:10:32.000Z</time>
      </trkpt>
      <trkpt lat="45.04696" lon="4.64778">
        <ele>509.41</ele>
        <time>2019-05-30T07:10:52.000Z</time>
      </trkpt>
      <trkpt lat="45.04716" lon="4.64815">
        <ele>511.38</ele>
        <time>2019-05-30T07:11:12.000Z</time>
      </trkpt>
      <trkpt lat="45.04741" lon="4.64826">
        <ele>514.71</ele>
        <time>2019-05-30T07:11:32.000Z</time>
      </trkpt>
      <trkpt lat="45.04769" lon="4.64835">
        <ele>517.59</ele>
        <time>2019-05-30T07:11:52.000Z</time>
      </trkpt>
      <trkpt lat="45.048" lon="4.64835">
        <ele>521.89</ele>
        <time>2019-05-30T07:12:12.000Z</time>
      </trkpt>
      <trkpt lat="45.04824" lon="4.64819">
        <ele>528.83</ele>
        <time>2019-05-30T07:12:32.000Z</time>
      </trkpt>
      <trkpt lat="45.04847" lon="4.64818">
        <ele>531.78</ele>
        <time>2019-05-30T07:12:52.000Z</time>
      </trkpt>
      <trkpt lat="45.04863" lon="4.64827">
        <ele>530.24</ele>
        <time>2019-05-30T07:13:12.000Z</time>
      </trkpt>
      <trkpt lat="45.04898" lon="4.64825">
        <ele>532.56</ele>
        <time>2019-05-30T07:13:32.000Z</time>
      </trkpt>
      <trkpt lat="45.04935" lon="4.64821">
        <ele>536.42</ele>
        <time>2019-05-30T07:13:52.000Z</time>
      </trkpt>
      <trkpt lat="45.04965" lon="4.64823">
        <ele>537.62</ele>
        <time>2019-05-30T07:14:12.000Z</time>
      </trkpt>
      <trkpt lat="45.04992" lon="4.64808">
        <ele>544</ele>
        <time>2019-05-30T07:14:32.000Z</time>
      </trkpt>
      <trkpt lat="45.05022" lon="4.64798">
        <ele>548.22</ele>
        <time>2019-05-30T07:14:52.000Z</time>
      </trkpt>
      <trkpt lat="45.05048" lon="4.64796">
        <ele>549.12</ele>
        <time>2019-05-30T07:15:12.000Z</time>
      </trkpt>
      <trkpt lat="45.05073" lon="4.6479">
        <ele>551.36</ele>
        <time>2019-05-30T07:15:32.000Z</time>
      </trkpt>
      <trkpt lat="45.05082" lon="4.64783">
        <ele>553.45</ele>
        <time>2019-05-30T07:15:52.000Z</time>
      </trkpt>
      <trkpt lat="45.05088" lon="4.64783">
        <ele>553.71</ele>
        <time>2019-05-30T07:16:14.000Z</time>
      </trkpt>
      <trkpt lat="45.05114" lon="4.64776">
        <ele>557.17</ele>
        <time>2019-05-30T07:16:34.000Z</time>
      </trkpt>
      <trkpt lat="45.05143" lon="4.64775">
        <ele>559.6</ele>
        <time>2019-05-30T07:16:54.000Z</time>
      </trkpt>
      <trkpt lat="45.05162" lon="4.64765">
        <ele>561.54</ele>
        <time>2019-05-30T07:17:14.000Z</time>
      </trkpt>
      <trkpt lat="45.05184" lon="4.6475">
        <ele>563.72</ele>
        <time>2019-05-30T07:17:34.000Z</time>
      </trkpt>
      <trkpt lat="45.05207" lon="4.64736">
        <ele>566.37</ele>
        <time>2019-05-30T07:17:54.000Z</time>
      </trkpt>
      <trkpt lat="45.05232" lon="4.64724">
        <ele>568.23</ele>
        <time>2019-05-30T07:18:14.000Z</time>
      </trkpt>
      <trkpt lat="45.05257" lon="4.64719">
        <ele>567.4</ele>
        <time>2019-05-30T07:18:34.000Z</time>
      </trkpt>
      <trkpt lat="45.05282" lon="4.64717">
        <ele>564.57</ele>
        <time>2019-05-30T07:18:54.000Z</time>
      </trkpt>
      <trkpt lat="45.05281" lon="4.64766">
        <ele>563.07</ele>
        <time>2019-05-30T07:19:14.000Z</time>
      </trkpt>
      <trkpt lat="45.05278" lon="4.64812">
        <ele>562.68</ele>
        <time>2019-05-30T07:19:34.000Z</time>
      </trkpt>
      <trkpt lat="45.05282" lon="4.64857">
        <ele>562.62</ele>
        <time>2019-05-30T07:19:54.000Z</time>
      </trkpt>
      <trkpt lat="45.05285" lon="4.64897">
        <ele>563.59</ele>
        <time>2019-05-30T07:20:14.000Z</time>
      </trkpt>
      <trkpt lat="45.05262" lon="4.64915">
        <ele>564.78</ele>
        <time>2019-05-30T07:20:34.000Z</time>
      </trkpt>
      <trkpt lat="45.05255" lon="4.64955">
        <ele>566.76</ele>
        <time>2019-05-30T07:20:54.000Z</time>
      </trkpt>
      <trkpt lat="45.05247" lon="4.65">
        <ele>568.92</ele>
        <time>2019-05-30T07:21:14.000Z</time>
      </trkpt>
      <trkpt lat="45.05239" lon="4.65044">
        <ele>569.92</ele>
        <time>2019-05-30T07:21:34.000Z</time>
      </trkpt>
      <trkpt lat="45.05235" lon="4.65082">
        <ele>569.96</ele>
        <time>2019-05-30T07:21:54.000Z</time>
      </trkpt>
      <trkpt lat="45.05234" lon="4.6513">
        <ele>569.68</ele>
        <time>2019-05-30T07:22:14.000Z</time>
      </trkpt>
      <trkpt lat="45.05246" lon="4.65167">
        <ele>568.84</ele>
        <time>2019-05-30T07:22:34.000Z</time>
      </trkpt>
      <trkpt lat="45.05268" lon="4.65175">
        <ele>568.46</ele>
        <time>2019-05-30T07:22:54.000Z</time>
      </trkpt>
      <trkpt lat="45.05282" lon="4.65232">
        <ele>560.53</ele>
        <time>2019-05-30T07:23:14.000Z</time>
      </trkpt>
      <trkpt lat="45.05271" lon="4.65272">
        <ele>554.89</ele>
        <time>2019-05-30T07:23:34.000Z</time>
      </trkpt>
      <trkpt lat="45.05279" lon="4.65312">
        <ele>548.26</ele>
        <time>2019-05-30T07:23:54.000Z</time>
      </trkpt>
      <trkpt lat="45.05308" lon="4.65315">
        <ele>545.74</ele>
        <time>2019-05-30T07:24:14.000Z</time>
      </trkpt>
      <trkpt lat="45.05339" lon="4.65317">
        <ele>542.85</ele>
        <time>2019-05-30T07:24:34.000Z</time>
      </trkpt>
      <trkpt lat="45.05359" lon="4.6531">
        <ele>541.76</ele>
        <time>2019-05-30T07:24:54.000Z</time>
      </trkpt>
      <trkpt lat="45.05377" lon="4.65292">
        <ele>542.03</ele>
        <time>2019-05-30T07:25:14.000Z</time>
      </trkpt>
      <trkpt lat="45.05402" lon="4.65266">
        <ele>542.02</ele>
        <time>2019-05-30T07:25:34.000Z</time>
      </trkpt>
      <trkpt lat="45.05427" lon="4.65239">
        <ele>542.04</ele>
        <time>2019-05-30T07:25:54.000Z</time>
      </trkpt>
      <trkpt lat="45.05452" lon="4.65213">
        <ele>541.55</ele>
        <time>2019-05-30T07:26:14.000Z</time>
      </trkpt>
      <trkpt lat="45.05475" lon="4.65185">
        <ele>540.56</ele>
        <time>2019-05-30T07:26:34.000Z</time>
      </trkpt>
      <trkpt lat="45.05486" lon="4.6517">
        <ele>540</ele>
        <time>2019-05-30T07:41:10.000Z</time>
      </trkpt>
      <trkpt lat="45.055" lon="4.65199">
        <ele>539.2</ele>
        <time>2019-05-30T07:41:30.000Z</time>
      </trkpt>
      <trkpt lat="45.0552" lon="4.65245">
        <ele>530.7</ele>
        <time>2019-05-30T07:41:50.000Z</time>
      </trkpt>
      <trkpt lat="45.05535" lon="4.65285">
        <ele>527.8</ele>
        <time>2019-05-30T07:42:10.000Z</time>
      </trkpt>
      <trkpt lat="45.05557" lon="4.65306">
        <ele>527</ele>
        <time>2019-05-30T07:42:30.000Z</time>
      </trkpt>
      <trkpt lat="45.05575" lon="4.65326">
        <ele>526.4</ele>
        <time>2019-05-30T07:42:50.000Z</time>
      </trkpt>
      <trkpt lat="45.05586" lon="4.65343">
        <ele>523.5</ele>
        <time>2019-05-30T07:43:10.000Z</time>
      </trkpt>
      <trkpt lat="45.0559" lon="4.65365">
        <ele>520.9</ele>
        <time>2019-05-30T07:43:30.000Z</time>
      </trkpt>
      <trkpt lat="45.05583" lon="4.65405">
        <ele>522.7</ele>
        <time>2019-05-30T07:43:50.000Z</time>
      </trkpt>
      <trkpt lat="45.05603" lon="4.65416">
        <ele>520.1</ele>
        <time>2019-05-30T07:44:10.000Z</time>
      </trkpt>
      <trkpt lat="45.05609" lon="4.65437">
        <ele>516.2</ele>
        <time>2019-05-30T07:44:30.000Z</time>
      </trkpt>
      <trkpt lat="45.05621" lon="4.65473">
        <ele>513.8</ele>
        <time>2019-05-30T07:44:50.000Z</time>
      </trkpt>
      <trkpt lat="45.05627" lon="4.65509">
        <ele>507.1</ele>
        <time>2019-05-30T07:45:10.000Z</time>
      </trkpt>
      <trkpt lat="45.05634" lon="4.65536">
        <ele>505.6</ele>
        <time>2019-05-30T07:45:30.000Z</time>
      </trkpt>
      <trkpt lat="45.05654" lon="4.65547">
        <ele>504.6</ele>
        <time>2019-05-30T07:45:50.000Z</time>
      </trkpt>
      <trkpt lat="45.05657" lon="4.65577">
        <ele>502</ele>
        <time>2019-05-30T07:46:10.000Z</time>
      </trkpt>
      <trkpt lat="45.05666" lon="4.65614">
        <ele>498.1</ele>
        <time>2019-05-30T07:46:30.000Z</time>
      </trkpt>
      <trkpt lat="45.05688" lon="4.65644">
        <ele>494.1</ele>
        <time>2019-05-30T07:46:50.000Z</time>
      </trkpt>
      <trkpt lat="45.05714" lon="4.65676">
        <ele>489.5</ele>
        <time>2019-05-30T07:47:10.000Z</time>
      </trkpt>
      <trkpt lat="45.05735" lon="4.65696">
        <ele>488.2</ele>
        <time>2019-05-30T07:47:30.000Z</time>
      </trkpt>
      <trkpt lat="45.0575" lon="4.65725">
        <ele>486.1</ele>
        <time>2019-05-30T07:47:50.000Z</time>
      </trkpt>
      <trkpt lat="45.05768" lon="4.65745">
        <ele>482.7</ele>
        <time>2019-05-30T07:48:10.000Z</time>
      </trkpt>
      <trkpt lat="45.05779" lon="4.65763">
        <ele>479.4</ele>
        <time>2019-05-30T07:48:30.000Z</time>
      </trkpt>
      <trkpt lat="45.05792" lon="4.65765">
        <ele>479</ele>
        <time>2019-05-30T07:48:50.000Z</time>
      </trkpt>
      <trkpt lat="45.05813" lon="4.65751">
        <ele>479.2</ele>
        <time>2019-05-30T07:49:10.000Z</time>
      </trkpt>
      <trkpt lat="45.05833" lon="4.65758">
        <ele>479.5</ele>
        <time>2019-05-30T07:49:30.000Z</time>
      </trkpt>
      <trkpt lat="45.05847" lon="4.65767">
        <ele>480.3</ele>
        <time>2019-05-30T07:49:50.000Z</time>
      </trkpt>
      <trkpt lat="45.05859" lon="4.6578">
        <ele>480.4</ele>
        <time>2019-05-30T07:50:10.000Z</time>
      </trkpt>
      <trkpt lat="45.05863" lon="4.65797">
        <ele>480.1</ele>
        <time>2019-05-30T07:50:30.000Z</time>
      </trkpt>
      <trkpt lat="45.05866" lon="4.65833">
        <ele>479.4</ele>
        <time>2019-05-30T07:50:50.000Z</time>
      </trkpt>
      <trkpt lat="45.05885" lon="4.65881">
        <ele>478.7</ele>
        <time>2019-05-30T07:51:10.000Z</time>
      </trkpt>
      <trkpt lat="45.05914" lon="4.65877">
        <ele>479.6</ele>
        <time>2019-05-30T07:51:30.000Z</time>
      </trkpt>
      <trkpt lat="45.0593" lon="4.65871">
        <ele>486.2</ele>
        <time>2019-05-30T07:51:50.000Z</time>
      </trkpt>
      <trkpt lat="45.05942" lon="4.65867">
        <ele>487</ele>
        <time>2019-05-30T07:52:10.000Z</time>
      </trkpt>
      <trkpt lat="45.05961" lon="4.65862">
        <ele>488.4</ele>
        <time>2019-05-30T07:52:30.000Z</time>
      </trkpt>
      <trkpt lat="45.05972" lon="4.65821">
        <ele>491.1</ele>
        <time>2019-05-30T07:52:50.000Z</time>
      </trkpt>
      <trkpt lat="45.05984" lon="4.65795">
        <ele>491.4</ele>
        <time>2019-05-30T07:53:10.000Z</time>
      </trkpt>
      <trkpt lat="45.06" lon="4.65789">
        <ele>495.6</ele>
        <time>2019-05-30T07:53:30.000Z</time>
      </trkpt>
      <trkpt lat="45.06017" lon="4.65804">
        <ele>496</ele>
        <time>2019-05-30T07:53:50.000Z</time>
      </trkpt>
      <trkpt lat="45.0602" lon="4.65815">
        <ele>496</ele>
        <time>2019-05-30T07:54:10.000Z</time>
      </trkpt>
      <trkpt lat="45.0602" lon="4.65836">
        <ele>495</ele>
        <time>2019-05-30T07:54:30.000Z</time>
      </trkpt>
      <trkpt lat="45.06033" lon="4.65835">
        <ele>495</ele>
        <time>2019-05-30T07:54:50.000Z</time>
      </trkpt>
      <trkpt lat="45.06045" lon="4.65828">
        <ele>496</ele>
        <time>2019-05-30T07:55:10.000Z</time>
      </trkpt>
      <trkpt lat="45.06057" lon="4.65811">
        <ele>496</ele>
        <time>2019-05-30T07:55:30.000Z</time>
      </trkpt>
      <trkpt lat="45.06064" lon="4.65796">
        <ele>496</ele>
        <time>2019-05-30T07:55:50.000Z</time>
      </trkpt>
      <trkpt lat="45.06072" lon="4.65786">
        <ele>496</ele>
        <time>2019-05-30T07:56:10.000Z</time>
      </trkpt>
      <trkpt lat="45.06081" lon="4.65775">
        <ele>496</ele>
        <time>2019-05-30T07:56:30.000Z</time>
      </trkpt>
      <trkpt lat="45.06091" lon="4.65759">
        <ele>495</ele>
        <time>2019-05-30T07:56:50.000Z</time>
      </trkpt>
      <trkpt lat="45.061" lon="4.65745">
        <ele>496</ele>
        <time>2019-05-30T07:57:10.000Z</time>
      </trkpt>
      <trkpt lat="45.06111" lon="4.65731">
        <ele>496</ele>
        <time>2019-05-30T07:57:30.000Z</time>
      </trkpt>
      <trkpt lat="45.06124" lon="4.65715">
        <ele>495</ele>
        <time>2019-05-30T07:57:50.000Z</time>
      </trkpt>
      <trkpt lat="45.06138" lon="4.65705">
        <ele>495.43</ele>
        <time>2019-05-30T07:58:16.000Z</time>
      </trkpt>
      <trkpt lat="45.06158" lon="4.65674">
        <ele>496.01</ele>
        <time>2019-05-30T07:58:55.000Z</time>
      </trkpt>
      <trkpt lat="45.06179" lon="4.65642">
        <ele>496.22</ele>
        <time>2019-05-30T07:59:15.000Z</time>
      </trkpt>
      <trkpt lat="45.062" lon="4.65614">
        <ele>496.09</ele>
        <time>2019-05-30T07:59:42.000Z</time>
      </trkpt>
      <trkpt lat="45.06225" lon="4.65594">
        <ele>495.79</ele>
        <time>2019-05-30T08:00:26.000Z</time>
      </trkpt>
      <trkpt lat="45.06249" lon="4.65589">
        <ele>494.91</ele>
        <time>2019-05-30T08:00:46.000Z</time>
      </trkpt>
      <trkpt lat="45.06278" lon="4.65583">
        <ele>492.49</ele>
        <time>2019-05-30T08:01:06.000Z</time>
      </trkpt>
      <trkpt lat="45.06303" lon="4.65559">
        <ele>490.86</ele>
        <time>2019-05-30T08:01:26.000Z</time>
      </trkpt>
      <trkpt lat="45.06327" lon="4.65584">
        <ele>488.06</ele>
        <time>2019-05-30T08:01:46.000Z</time>
      </trkpt>
      <trkpt lat="45.06342" lon="4.65623">
        <ele>486.95</ele>
        <time>2019-05-30T08:02:06.000Z</time>
      </trkpt>
      <trkpt lat="45.06357" lon="4.65659">
        <ele>486.88</ele>
        <time>2019-05-30T08:02:26.000Z</time>
      </trkpt>
      <trkpt lat="45.06377" lon="4.65698">
        <ele>487.31</ele>
        <time>2019-05-30T08:02:46.000Z</time>
      </trkpt>
      <trkpt lat="45.06394" lon="4.65732">
        <ele>488.27</ele>
        <time>2019-05-30T08:03:06.000Z</time>
      </trkpt>
      <trkpt lat="45.06411" lon="4.65765">
        <ele>488.44</ele>
        <time>2019-05-30T08:03:26.000Z</time>
      </trkpt>
      <trkpt lat="45.06435" lon="4.65783">
        <ele>489.4</ele>
        <time>2019-05-30T08:03:46.000Z</time>
      </trkpt>
      <trkpt lat="45.06455" lon="4.65819">
        <ele>487.99</ele>
        <time>2019-05-30T08:04:06.000Z</time>
      </trkpt>
      <trkpt lat="45.06473" lon="4.65854">
        <ele>487.17</ele>
        <time>2019-05-30T08:15:19.000Z</time>
      </trkpt>
      <trkpt lat="45.06495" lon="4.65882">
        <ele>487.73</ele>
        <time>2019-05-30T08:15:39.000Z</time>
      </trkpt>
      <trkpt lat="45.06519" lon="4.65904">
        <ele>488.86</ele>
        <time>2019-05-30T08:15:59.000Z</time>
      </trkpt>
      <trkpt lat="45.06536" lon="4.65924">
        <ele>488.77</ele>
        <time>2019-05-30T08:16:19.000Z</time>
      </trkpt>
      <trkpt lat="45.06531" lon="4.65965">
        <ele>484.52</ele>
        <time>2019-05-30T08:16:39.000Z</time>
      </trkpt>
      <trkpt lat="45.06528" lon="4.6601">
        <ele>480.66</ele>
        <time>2019-05-30T08:16:59.000Z</time>
      </trkpt>
      <trkpt lat="45.06521" lon="4.66053">
        <ele>477.87</ele>
        <time>2019-05-30T08:17:19.000Z</time>
      </trkpt>
      <trkpt lat="45.06515" lon="4.66098">
        <ele>474.78</ele>
        <time>2019-05-30T08:17:39.000Z</time>
      </trkpt>
      <trkpt lat="45.0651" lon="4.66141">
        <ele>471.52</ele>
        <time>2019-05-30T08:17:59.000Z</time>
      </trkpt>
      <trkpt lat="45.06509" lon="4.66186">
        <ele>468.82</ele>
        <time>2019-05-30T08:18:19.000Z</time>
      </trkpt>
      <trkpt lat="45.06513" lon="4.66231">
        <ele>466.79</ele>
        <time>2019-05-30T08:18:39.000Z</time>
      </trkpt>
      <trkpt lat="45.06519" lon="4.66276">
        <ele>464.96</ele>
        <time>2019-05-30T08:18:59.000Z</time>
      </trkpt>
      <trkpt lat="45.0652" lon="4.66322">
        <ele>464.34</ele>
        <time>2019-05-30T08:19:19.000Z</time>
      </trkpt>
      <trkpt lat="45.06516" lon="4.66346">
        <ele>465.07</ele>
        <time>2019-05-30T08:19:39.000Z</time>
      </trkpt>
      <trkpt lat="45.06521" lon="4.66392">
        <ele>466.36</ele>
        <time>2019-05-30T08:19:59.000Z</time>
      </trkpt>
      <trkpt lat="45.0652" lon="4.66439">
        <ele>467.71</ele>
        <time>2019-05-30T08:20:19.000Z</time>
      </trkpt>
      <trkpt lat="45.06527" lon="4.66487">
        <ele>468.12</ele>
        <time>2019-05-30T08:20:39.000Z</time>
      </trkpt>
      <trkpt lat="45.06531" lon="4.66529">
        <ele>469.24</ele>
        <time>2019-05-30T08:20:59.000Z</time>
      </trkpt>
      <trkpt lat="45.06539" lon="4.66574">
        <ele>470.39</ele>
        <time>2019-05-30T08:21:19.000Z</time>
      </trkpt>
      <trkpt lat="45.06538" lon="4.66617">
        <ele>469.33</ele>
        <time>2019-05-30T08:21:39.000Z</time>
      </trkpt>
      <trkpt lat="45.06539" lon="4.66659">
        <ele>467.21</ele>
        <time>2019-05-30T08:21:59.000Z</time>
      </trkpt>
      <trkpt lat="45.0654" lon="4.66702">
        <ele>466.18</ele>
        <time>2019-05-30T08:22:19.000Z</time>
      </trkpt>
      <trkpt lat="45.06543" lon="4.66743">
        <ele>465.64</ele>
        <time>2019-05-30T08:22:39.000Z</time>
      </trkpt>
      <trkpt lat="45.0653" lon="4.66756">
        <ele>466.27</ele>
        <time>2019-05-30T08:22:59.000Z</time>
      </trkpt>
      <trkpt lat="45.06501" lon="4.6674">
        <ele>467.06</ele>
        <time>2019-05-30T08:23:19.000Z</time>
      </trkpt>
      <trkpt lat="45.06473" lon="4.66727">
        <ele>466.66</ele>
        <time>2019-05-30T08:23:39.000Z</time>
      </trkpt>
      <trkpt lat="45.06442" lon="4.66717">
        <ele>465.51</ele>
        <time>2019-05-30T08:23:59.000Z</time>
      </trkpt>
      <trkpt lat="45.0641" lon="4.66717">
        <ele>463.59</ele>
        <time>2019-05-30T08:24:19.000Z</time>
      </trkpt>
      <trkpt lat="45.06381" lon="4.66714">
        <ele>461.48</ele>
        <time>2019-05-30T08:24:39.000Z</time>
      </trkpt>
      <trkpt lat="45.06346" lon="4.66717">
        <ele>458.47</ele>
        <time>2019-05-30T08:24:59.000Z</time>
      </trkpt>
      <trkpt lat="45.06316" lon="4.66721">
        <ele>456.02</ele>
        <time>2019-05-30T08:25:19.000Z</time>
      </trkpt>
      <trkpt lat="45.06286" lon="4.66728">
        <ele>453.87</ele>
        <time>2019-05-30T08:25:39.000Z</time>
      </trkpt>
      <trkpt lat="45.06267" lon="4.66729">
        <ele>452.3</ele>
        <time>2019-05-30T08:25:59.000Z</time>
      </trkpt>
      <trkpt lat="45.06241" lon="4.66726">
        <ele>449.9</ele>
        <time>2019-05-30T08:26:19.000Z</time>
      </trkpt>
      <trkpt lat="45.06213" lon="4.66726">
        <ele>447.45</ele>
        <time>2019-05-30T08:26:39.000Z</time>
      </trkpt>
      <trkpt lat="45.06208" lon="4.66726">
        <ele>447.01</ele>
        <time>2019-05-30T08:26:59.000Z</time>
      </trkpt>
      <trkpt lat="45.06205" lon="4.66721">
        <ele>446.48</ele>
        <time>2019-05-30T08:27:19.000Z</time>
      </trkpt>
      <trkpt lat="45.06208" lon="4.6673">
        <ele>447.21</ele>
        <time>2019-05-30T08:27:39.000Z</time>
      </trkpt>
      <trkpt lat="45.06209" lon="4.66723">
        <ele>446.91</ele>
        <time>2019-05-30T08:27:59.000Z</time>
      </trkpt>
      <trkpt lat="45.06204" lon="4.66726">
        <ele>446.64</ele>
        <time>2019-05-30T08:28:19.000Z</time>
      </trkpt>
      <trkpt lat="45.06184" lon="4.66744">
        <ele>445.58</ele>
        <time>2019-05-30T08:28:39.000Z</time>
      </trkpt>
      <trkpt lat="45.06171" lon="4.66781">
        <ele>445.78</ele>
        <time>2019-05-30T08:28:59.000Z</time>
      </trkpt>
      <trkpt lat="45.06159" lon="4.66814">
        <ele>446.06</ele>
        <time>2019-05-30T08:29:19.000Z</time>
      </trkpt>
      <trkpt lat="45.06144" lon="4.66852">
        <ele>446.09</ele>
        <time>2019-05-30T08:29:39.000Z</time>
      </trkpt>
      <trkpt lat="45.0613" lon="4.66887">
        <ele>446.22</ele>
        <time>2019-05-30T08:29:59.000Z</time>
      </trkpt>
      <trkpt lat="45.06127" lon="4.6693">
        <ele>446.96</ele>
        <time>2019-05-30T08:30:19.000Z</time>
      </trkpt>
      <trkpt lat="45.06125" lon="4.66976">
        <ele>445.8</ele>
        <time>2019-05-30T08:30:39.000Z</time>
      </trkpt>
      <trkpt lat="45.06123" lon="4.67021">
        <ele>443.99</ele>
        <time>2019-05-30T08:30:59.000Z</time>
      </trkpt>
      <trkpt lat="45.06114" lon="4.67061">
        <ele>441.15</ele>
        <time>2019-05-30T08:31:19.000Z</time>
      </trkpt>
      <trkpt lat="45.06095" lon="4.67096">
        <ele>437.39</ele>
        <time>2019-05-30T08:31:39.000Z</time>
      </trkpt>
      <trkpt lat="45.06094" lon="4.67128">
        <ele>436.87</ele>
        <time>2019-05-30T08:33:45.000Z</time>
      </trkpt>
      <trkpt lat="45.06098" lon="4.6715">
        <ele>436.33</ele>
        <time>2019-05-30T08:34:20.000Z</time>
      </trkpt>
      <trkpt lat="45.06102" lon="4.67192">
        <ele>432.2</ele>
        <time>2019-05-30T08:34:46.000Z</time>
      </trkpt>
      <trkpt lat="45.06127" lon="4.67203">
        <ele>430.77</ele>
        <time>2019-05-30T08:35:06.000Z</time>
      </trkpt>
      <trkpt lat="45.06161" lon="4.67196">
        <ele>431.54</ele>
        <time>2019-05-30T08:35:26.000Z</time>
      </trkpt>
      <trkpt lat="45.06187" lon="4.67183">
        <ele>432.97</ele>
        <time>2019-05-30T08:35:46.000Z</time>
      </trkpt>
      <trkpt lat="45.06192" lon="4.6717">
        <ele>433.87</ele>
        <time>2019-05-30T08:36:06.000Z</time>
      </trkpt>
      <trkpt lat="45.06189" lon="4.67181">
        <ele>433.06</ele>
        <time>2019-05-30T08:36:26.000Z</time>
      </trkpt>
      <trkpt lat="45.06168" lon="4.67208">
        <ele>430.32</ele>
        <time>2019-05-30T08:36:46.000Z</time>
      </trkpt>
      <trkpt lat="45.06142" lon="4.67251">
        <ele>425.14</ele>
        <time>2019-05-30T08:37:06.000Z</time>
      </trkpt>
      <trkpt lat="45.06114" lon="4.67274">
        <ele>421.94</ele>
        <time>2019-05-30T08:37:26.000Z</time>
      </trkpt>
      <trkpt lat="45.06087" lon="4.67302">
        <ele>416.54</ele>
        <time>2019-05-30T08:37:46.000Z</time>
      </trkpt>
      <trkpt lat="45.06068" lon="4.67331">
        <ele>412.11</ele>
        <time>2019-05-30T08:38:06.000Z</time>
      </trkpt>
      <trkpt lat="45.06059" lon="4.67372">
        <ele>410.58</ele>
        <time>2019-05-30T08:38:26.000Z</time>
      </trkpt>
      <trkpt lat="45.06046" lon="4.67404">
        <ele>409.23</ele>
        <time>2019-05-30T08:38:46.000Z</time>
      </trkpt>
      <trkpt lat="45.06029" lon="4.67437">
        <ele>407.27</ele>
        <time>2019-05-30T08:39:06.000Z</time>
      </trkpt>
      <trkpt lat="45.06023" lon="4.67469">
        <ele>407.04</ele>
        <time>2019-05-30T08:39:26.000Z</time>
      </trkpt>
      <trkpt lat="45.06017" lon="4.675">
        <ele>407.11</ele>
        <time>2019-05-30T08:39:46.000Z</time>
      </trkpt>
      <trkpt lat="45.06006" lon="4.67531">
        <ele>407.2</ele>
        <time>2019-05-30T08:40:06.000Z</time>
      </trkpt>
      <trkpt lat="45.0602" lon="4.67561">
        <ele>411.91</ele>
        <time>2019-05-30T08:40:26.000Z</time>
      </trkpt>
      <trkpt lat="45.06024" lon="4.67588">
        <ele>415.22</ele>
        <time>2019-05-30T08:40:46.000Z</time>
      </trkpt>
      <trkpt lat="45.05996" lon="4.67626">
        <ele>412.71</ele>
        <time>2019-05-30T08:41:06.000Z</time>
      </trkpt>
      <trkpt lat="45.05978" lon="4.6766">
        <ele>411.05</ele>
        <time>2019-05-30T08:41:26.000Z</time>
      </trkpt>
      <trkpt lat="45.05968" lon="4.67688">
        <ele>410.37</ele>
        <time>2019-05-30T08:41:46.000Z</time>
      </trkpt>
      <trkpt lat="45.05941" lon="4.6771">
        <ele>405.61</ele>
        <time>2019-05-30T08:42:06.000Z</time>
      </trkpt>
      <trkpt lat="45.05927" lon="4.67731">
        <ele>404.47</ele>
        <time>2019-05-30T08:42:26.000Z</time>
      </trkpt>
      <trkpt lat="45.05909" lon="4.6776">
        <ele>403.07</ele>
        <time>2019-05-30T08:42:46.000Z</time>
      </trkpt>
      <trkpt lat="45.05902" lon="4.678">
        <ele>402.92</ele>
        <time>2019-05-30T08:43:06.000Z</time>
      </trkpt>
      <trkpt lat="45.059" lon="4.67836">
        <ele>403.98</ele>
        <time>2019-05-30T08:43:26.000Z</time>
      </trkpt>
      <trkpt lat="45.05887" lon="4.67845">
        <ele>401.23</ele>
        <time>2019-05-30T08:43:46.000Z</time>
      </trkpt>
      <trkpt lat="45.05866" lon="4.67861">
        <ele>396.69</ele>
        <time>2019-05-30T08:44:06.000Z</time>
      </trkpt>
      <trkpt lat="45.05849" lon="4.67897">
        <ele>395.55</ele>
        <time>2019-05-30T08:44:26.000Z</time>
      </trkpt>
      <trkpt lat="45.05842" lon="4.67918">
        <ele>395.5</ele>
        <time>2019-05-30T08:44:46.000Z</time>
      </trkpt>
      <trkpt lat="45.05834" lon="4.67947">
        <ele>395.93</ele>
        <time>2019-05-30T08:45:06.000Z</time>
      </trkpt>
      <trkpt lat="45.05832" lon="4.67972">
        <ele>397.2</ele>
        <time>2019-05-30T08:45:26.000Z</time>
      </trkpt>
      <trkpt lat="45.05833" lon="4.68">
        <ele>398.97</ele>
        <time>2019-05-30T08:45:46.000Z</time>
      </trkpt>
      <trkpt lat="45.05818" lon="4.68028">
        <ele>395.91</ele>
        <time>2019-05-30T08:46:06.000Z</time>
      </trkpt>
      <trkpt lat="45.05825" lon="4.68064">
        <ele>397.52</ele>
        <time>2019-05-30T08:46:26.000Z</time>
      </trkpt>
      <trkpt lat="45.05802" lon="4.68083">
        <ele>391.75</ele>
        <time>2019-05-30T08:46:46.000Z</time>
      </trkpt>
      <trkpt lat="45.05782" lon="4.68106">
        <ele>387.08</ele>
        <time>2019-05-30T08:47:06.000Z</time>
      </trkpt>
      <trkpt lat="45.05769" lon="4.68139">
        <ele>385.64</ele>
        <time>2019-05-30T08:47:26.000Z</time>
      </trkpt>
      <trkpt lat="45.05762" lon="4.68171">
        <ele>385.41</ele>
        <time>2019-05-30T08:47:46.000Z</time>
      </trkpt>
      <trkpt lat="45.05754" lon="4.68217">
        <ele>384.7</ele>
        <time>2019-05-30T08:48:08.000Z</time>
      </trkpt>
      <trkpt lat="45.05764" lon="4.68254">
        <ele>386.34</ele>
        <time>2019-05-30T08:48:28.000Z</time>
      </trkpt>
      <trkpt lat="45.05778" lon="4.6828">
        <ele>389.13</ele>
        <time>2019-05-30T08:49:12.000Z</time>
      </trkpt>
      <trkpt lat="45.05761" lon="4.68313">
        <ele>383.58</ele>
        <time>2019-05-30T08:49:32.000Z</time>
      </trkpt>
      <trkpt lat="45.05743" lon="4.68326">
        <ele>380.04</ele>
        <time>2019-05-30T08:49:52.000Z</time>
      </trkpt>
      <trkpt lat="45.05728" lon="4.6834">
        <ele>377.87</ele>
        <time>2019-05-30T08:50:12.000Z</time>
      </trkpt>
      <trkpt lat="45.05731" lon="4.68378">
        <ele>377.97</ele>
        <time>2019-05-30T08:50:32.000Z</time>
      </trkpt>
      <trkpt lat="45.05731" lon="4.68414">
        <ele>378.62</ele>
        <time>2019-05-30T08:50:52.000Z</time>
      </trkpt>
      <trkpt lat="45.05731" lon="4.68442">
        <ele>379.46</ele>
        <time>2019-05-30T08:51:12.000Z</time>
      </trkpt>
      <trkpt lat="45.05729" lon="4.68436">
        <ele>378.76</ele>
        <time>2019-05-30T08:51:32.000Z</time>
      </trkpt>
      <trkpt lat="45.05726" lon="4.68442">
        <ele>378.46</ele>
        <time>2019-05-30T08:51:52.000Z</time>
      </trkpt>
      <trkpt lat="45.05722" lon="4.68447">
        <ele>377.97</ele>
        <time>2019-05-30T08:52:12.000Z</time>
      </trkpt>
      <trkpt lat="45.05703" lon="4.68457">
        <ele>375.07</ele>
        <time>2019-05-30T08:52:32.000Z</time>
      </trkpt>
      <trkpt lat="45.05701" lon="4.68484">
        <ele>374.94</ele>
        <time>2019-05-30T08:52:52.000Z</time>
      </trkpt>
      <trkpt lat="45.05691" lon="4.68519">
        <ele>373.54</ele>
        <time>2019-05-30T08:53:12.000Z</time>
      </trkpt>
      <trkpt lat="45.05698" lon="4.68554">
        <ele>375.71</ele>
        <time>2019-05-30T08:53:32.000Z</time>
      </trkpt>
      <trkpt lat="45.05707" lon="4.68575">
        <ele>378.19</ele>
        <time>2019-05-30T08:53:52.000Z</time>
      </trkpt>
      <trkpt lat="45.05724" lon="4.68599">
        <ele>382.33</ele>
        <time>2019-05-30T08:54:12.000Z</time>
      </trkpt>
      <trkpt lat="45.05719" lon="4.68634">
        <ele>380.66</ele>
        <time>2019-05-30T08:54:32.000Z</time>
      </trkpt>
      <trkpt lat="45.05712" lon="4.68652">
        <ele>378.69</ele>
        <time>2019-05-30T08:54:52.000Z</time>
      </trkpt>
      <trkpt lat="45.05698" lon="4.68682">
        <ele>375.02</ele>
        <time>2019-05-30T08:55:12.000Z</time>
      </trkpt>
      <trkpt lat="45.0567" lon="4.68693">
        <ele>371.36</ele>
        <time>2019-05-30T08:55:32.000Z</time>
      </trkpt>
      <trkpt lat="45.05665" lon="4.68725">
        <ele>369.33</ele>
        <time>2019-05-30T08:55:52.000Z</time>
      </trkpt>
      <trkpt lat="45.05673" lon="4.68753">
        <ele>368.2</ele>
        <time>2019-05-30T08:56:12.000Z</time>
      </trkpt>
      <trkpt lat="45.05678" lon="4.68771">
        <ele>367.29</ele>
        <time>2019-05-30T08:56:32.000Z</time>
      </trkpt>
      <trkpt lat="45.05668" lon="4.68816">
        <ele>363.92</ele>
        <time>2019-05-30T08:56:52.000Z</time>
      </trkpt>
      <trkpt lat="45.0568" lon="4.68846">
        <ele>362.72</ele>
        <time>2019-05-30T08:57:12.000Z</time>
      </trkpt>
      <trkpt lat="45.05679" lon="4.68886">
        <ele>361.26</ele>
        <time>2019-05-30T08:57:32.000Z</time>
      </trkpt>
      <trkpt lat="45.05679" lon="4.68925">
        <ele>360.44</ele>
        <time>2019-05-30T08:57:52.000Z</time>
      </trkpt>
      <trkpt lat="45.05657" lon="4.68932">
        <ele>359.8</ele>
        <time>2019-05-30T08:58:12.000Z</time>
      </trkpt>
      <trkpt lat="45.05639" lon="4.68912">
        <ele>362.56</ele>
        <time>2019-05-30T08:58:49.000Z</time>
      </trkpt>
      <trkpt lat="45.05636" lon="4.68952">
        <ele>361.06</ele>
        <time>2019-05-30T08:59:09.000Z</time>
      </trkpt>
      <trkpt lat="45.05615" lon="4.68974">
        <ele>362.32</ele>
        <time>2019-05-30T08:59:29.000Z</time>
      </trkpt>
      <trkpt lat="45.05591" lon="4.68981">
        <ele>364.43</ele>
        <time>2019-05-30T08:59:49.000Z</time>
      </trkpt>
      <trkpt lat="45.05583" lon="4.68988">
        <ele>364.25</ele>
        <time>2019-05-30T09:00:09.000Z</time>
      </trkpt>
      <trkpt lat="45.05562" lon="4.69012">
        <ele>363.51</ele>
        <time>2019-05-30T09:00:29.000Z</time>
      </trkpt>
      <trkpt lat="45.05542" lon="4.69035">
        <ele>364.42</ele>
        <time>2019-05-30T09:00:49.000Z</time>
      </trkpt>
      <trkpt lat="45.05521" lon="4.6902">
        <ele>367.51</ele>
        <time>2019-05-30T09:01:09.000Z</time>
      </trkpt>
      <trkpt lat="45.05503" lon="4.69038">
        <ele>369.65</ele>
        <time>2019-05-30T09:01:29.000Z</time>
      </trkpt>
      <trkpt lat="45.05484" lon="4.69051">
        <ele>371.37</ele>
        <time>2019-05-30T09:01:49.000Z</time>
      </trkpt>
      <trkpt lat="45.05464" lon="4.6905">
        <ele>372.72</ele>
        <time>2019-05-30T09:02:09.000Z</time>
      </trkpt>
      <trkpt lat="45.05452" lon="4.69077">
        <ele>372.27</ele>
        <time>2019-05-30T09:02:29.000Z</time>
      </trkpt>
      <trkpt lat="45.05435" lon="4.69082">
        <ele>372.78</ele>
        <time>2019-05-30T09:02:49.000Z</time>
      </trkpt>
      <trkpt lat="45.05405" lon="4.69077">
        <ele>375.4</ele>
        <time>2019-05-30T09:03:09.000Z</time>
      </trkpt>
      <trkpt lat="45.0538" lon="4.69072">
        <ele>378.22</ele>
        <time>2019-05-30T09:03:29.000Z</time>
      </trkpt>
      <trkpt lat="45.05363" lon="4.69062">
        <ele>380.56</ele>
        <time>2019-05-30T09:03:49.000Z</time>
      </trkpt>
      <trkpt lat="45.05362" lon="4.69097">
        <ele>379.39</ele>
        <time>2019-05-30T09:04:09.000Z</time>
      </trkpt>
      <trkpt lat="45.05358" lon="4.69134">
        <ele>378.63</ele>
        <time>2019-05-30T09:04:29.000Z</time>
      </trkpt>
      <trkpt lat="45.05348" lon="4.69162">
        <ele>379.15</ele>
        <time>2019-05-30T09:04:49.000Z</time>
      </trkpt>
      <trkpt lat="45.05334" lon="4.69161">
        <ele>381.19</ele>
        <time>2019-05-30T09:05:09.000Z</time>
      </trkpt>
      <trkpt lat="45.05335" lon="4.69154">
        <ele>381.35</ele>
        <time>2019-05-30T09:05:29.000Z</time>
      </trkpt>
      <trkpt lat="45.0533" lon="4.69153">
        <ele>382.1</ele>
        <time>2019-05-30T09:05:49.000Z</time>
      </trkpt>
      <trkpt lat="45.0532" lon="4.69133">
        <ele>384.42</ele>
        <time>2019-05-30T09:06:09.000Z</time>
      </trkpt>
      <trkpt lat="45.05315" lon="4.6913">
        <ele>385.21</ele>
        <time>2019-05-30T09:06:29.000Z</time>
      </trkpt>
      <trkpt lat="45.05297" lon="4.69115">
        <ele>389.22</ele>
        <time>2019-05-30T09:06:49.000Z</time>
      </trkpt>
      <trkpt lat="45.05292" lon="4.6908">
        <ele>392.12</ele>
        <time>2019-05-30T09:07:09.000Z</time>
      </trkpt>
      <trkpt lat="45.05295" lon="4.69051">
        <ele>392.56</ele>
        <time>2019-05-30T09:07:29.000Z</time>
      </trkpt>
      <trkpt lat="45.05283" lon="4.69016">
        <ele>396.37</ele>
        <time>2019-05-30T09:07:49.000Z</time>
      </trkpt>
      <trkpt lat="45.05283" lon="4.68981">
        <ele>397.96</ele>
        <time>2019-05-30T09:08:09.000Z</time>
      </trkpt>
      <trkpt lat="45.05274" lon="4.68952">
        <ele>401.48</ele>
        <time>2019-05-30T09:08:29.000Z</time>
      </trkpt>
      <trkpt lat="45.05254" lon="4.68935">
        <ele>405.82</ele>
        <time>2019-05-30T09:08:49.000Z</time>
      </trkpt>
      <trkpt lat="45.0523" lon="4.68932">
        <ele>409.7</ele>
        <time>2019-05-30T09:09:09.000Z</time>
      </trkpt>
      <trkpt lat="45.05204" lon="4.68918">
        <ele>413.66</ele>
        <time>2019-05-30T09:09:29.000Z</time>
      </trkpt>
      <trkpt lat="45.05185" lon="4.68899">
        <ele>416.65</ele>
        <time>2019-05-30T09:09:49.000Z</time>
      </trkpt>
      <trkpt lat="45.05159" lon="4.68916">
        <ele>420.16</ele>
        <time>2019-05-30T09:10:09.000Z</time>
      </trkpt>
      <trkpt lat="45.05136" lon="4.68914">
        <ele>423.9</ele>
        <time>2019-05-30T09:10:29.000Z</time>
      </trkpt>
      <trkpt lat="45.05121" lon="4.68904">
        <ele>426.2</ele>
        <time>2019-05-30T09:10:49.000Z</time>
      </trkpt>
      <trkpt lat="45.05103" lon="4.68882">
        <ele>429.15</ele>
        <time>2019-05-30T09:11:09.000Z</time>
      </trkpt>
      <trkpt lat="45.05082" lon="4.68862">
        <ele>432.33</ele>
        <time>2019-05-30T09:11:29.000Z</time>
      </trkpt>
      <trkpt lat="45.05062" lon="4.68853">
        <ele>434.75</ele>
        <time>2019-05-30T09:11:49.000Z</time>
      </trkpt>
      <trkpt lat="45.05058" lon="4.68872">
        <ele>434.29</ele>
        <time>2019-05-30T09:12:09.000Z</time>
      </trkpt>
      <trkpt lat="45.05048" lon="4.6889">
        <ele>434.18</ele>
        <time>2019-05-30T09:12:29.000Z</time>
      </trkpt>
      <trkpt lat="45.05034" lon="4.68904">
        <ele>434.2</ele>
        <time>2019-05-30T09:12:49.000Z</time>
      </trkpt>
      <trkpt lat="45.05011" lon="4.68922">
        <ele>433.9</ele>
        <time>2019-05-30T09:13:09.000Z</time>
      </trkpt>
      <trkpt lat="45.04988" lon="4.68945">
        <ele>432.92</ele>
        <time>2019-05-30T09:13:29.000Z</time>
      </trkpt>
      <trkpt lat="45.04965" lon="4.68971">
        <ele>430.76</ele>
        <time>2019-05-30T09:13:49.000Z</time>
      </trkpt>
      <trkpt lat="45.04943" lon="4.68995">
        <ele>427.57</ele>
        <time>2019-05-30T09:14:09.000Z</time>
      </trkpt>
      <trkpt lat="45.04921" lon="4.69019">
        <ele>424.41</ele>
        <time>2019-05-30T09:14:29.000Z</time>
      </trkpt>
      <trkpt lat="45.04896" lon="4.69015">
        <ele>423.18</ele>
        <time>2019-05-30T09:14:49.000Z</time>
      </trkpt>
      <trkpt lat="45.04872" lon="4.68993">
        <ele>423.56</ele>
        <time>2019-05-30T09:15:09.000Z</time>
      </trkpt>
      <trkpt lat="45.04859" lon="4.68964">
        <ele>423.66</ele>
        <time>2019-05-30T09:15:29.000Z</time>
      </trkpt>
      <trkpt lat="45.0486" lon="4.68957">
        <ele>423.72</ele>
        <time>2019-05-30T09:15:49.000Z</time>
      </trkpt>
      <trkpt lat="45.04861" lon="4.68936">
        <ele>423.99</ele>
        <time>2019-05-30T09:16:09.000Z</time>
      </trkpt>
      <trkpt lat="45.04849" lon="4.68915">
        <ele>423.75</ele>
        <time>2019-05-30T09:16:29.000Z</time>
      </trkpt>
      <trkpt lat="45.04832" lon="4.68891">
        <ele>424.19</ele>
        <time>2019-05-30T09:16:49.000Z</time>
      </trkpt>
      <trkpt lat="45.04815" lon="4.6887">
        <ele>425.4</ele>
        <time>2019-05-30T09:17:09.000Z</time>
      </trkpt>
      <trkpt lat="45.04796" lon="4.68842">
        <ele>427.51</ele>
        <time>2019-05-30T09:17:36.000Z</time>
      </trkpt>
      <trkpt lat="45.04775" lon="4.68821">
        <ele>429.29</ele>
        <time>2019-05-30T09:17:56.000Z</time>
      </trkpt>
      <trkpt lat="45.0475" lon="4.6881">
        <ele>430.29</ele>
        <time>2019-05-30T09:18:16.000Z</time>
      </trkpt>
      <trkpt lat="45.0472" lon="4.68812">
        <ele>430.03</ele>
        <time>2019-05-30T09:18:36.000Z</time>
      </trkpt>
      <trkpt lat="45.04691" lon="4.68813">
        <ele>429.46</ele>
        <time>2019-05-30T09:18:56.000Z</time>
      </trkpt>
      <trkpt lat="45.04661" lon="4.68815">
        <ele>428.15</ele>
        <time>2019-05-30T09:19:16.000Z</time>
      </trkpt>
      <trkpt lat="45.04634" lon="4.6881">
        <ele>426.76</ele>
        <time>2019-05-30T09:19:36.000Z</time>
      </trkpt>
      <trkpt lat="45.04604" lon="4.68808">
        <ele>424.48</ele>
        <time>2019-05-30T09:19:56.000Z</time>
      </trkpt>
      <trkpt lat="45.04574" lon="4.68806">
        <ele>421.94</ele>
        <time>2019-05-30T09:20:16.000Z</time>
      </trkpt>
      <trkpt lat="45.04546" lon="4.68806">
        <ele>418.99</ele>
        <time>2019-05-30T09:20:36.000Z</time>
      </trkpt>
      <trkpt lat="45.04521" lon="4.68786">
        <ele>417.46</ele>
        <time>2019-05-30T09:20:56.000Z</time>
      </trkpt>
      <trkpt lat="45.04497" lon="4.68784">
        <ele>414.36</ele>
        <time>2019-05-30T09:21:16.000Z</time>
      </trkpt>
      <trkpt lat="45.04469" lon="4.68788">
        <ele>410.15</ele>
        <time>2019-05-30T09:21:36.000Z</time>
      </trkpt>
      <trkpt lat="45.04443" lon="4.68776">
        <ele>406.95</ele>
        <time>2019-05-30T09:21:56.000Z</time>
      </trkpt>
      <trkpt lat="45.04417" lon="4.68761">
        <ele>403.54</ele>
        <time>2019-05-30T09:22:16.000Z</time>
      </trkpt>
      <trkpt lat="45.04392" lon="4.68778">
        <ele>398.82</ele>
        <time>2019-05-30T09:22:36.000Z</time>
      </trkpt>
      <trkpt lat="45.04367" lon="4.6879">
        <ele>393.9</ele>
        <time>2019-05-30T09:22:56.000Z</time>
      </trkpt>
      <trkpt lat="45.04338" lon="4.6879">
        <ele>388.01</ele>
        <time>2019-05-30T09:23:16.000Z</time>
      </trkpt>
      <trkpt lat="45.04319" lon="4.68792">
        <ele>382.94</ele>
        <time>2019-05-30T09:23:36.000Z</time>
      </trkpt>
      <trkpt lat="45.04307" lon="4.6877">
        <ele>381.3</ele>
        <time>2019-05-30T09:23:56.000Z</time>
      </trkpt>
      <trkpt lat="45.0429" lon="4.68738">
        <ele>377.81</ele>
        <time>2019-05-30T09:24:16.000Z</time>
      </trkpt>
      <trkpt lat="45.04269" lon="4.6871">
        <ele>372.94</ele>
        <time>2019-05-30T09:24:36.000Z</time>
      </trkpt>
      <trkpt lat="45.04249" lon="4.68681">
        <ele>369.09</ele>
        <time>2019-05-30T09:24:56.000Z</time>
      </trkpt>
      <trkpt lat="45.04252" lon="4.68646">
        <ele>371.18</ele>
        <time>2019-05-30T09:25:16.000Z</time>
      </trkpt>
      <trkpt lat="45.04244" lon="4.68604">
        <ele>369.19</ele>
        <time>2019-05-30T09:25:36.000Z</time>
      </trkpt>
      <trkpt lat="45.04232" lon="4.68575">
        <ele>366.55</ele>
        <time>2019-05-30T09:25:56.000Z</time>
      </trkpt>
      <trkpt lat="45.04212" lon="4.68546">
        <ele>361.15</ele>
        <time>2019-05-30T09:26:16.000Z</time>
      </trkpt>
      <trkpt lat="45.04186" lon="4.68559">
        <ele>352.92</ele>
        <time>2019-05-30T09:26:36.000Z</time>
      </trkpt>
      <trkpt lat="45.04164" lon="4.68581">
        <ele>346.07</ele>
        <time>2019-05-30T09:26:56.000Z</time>
      </trkpt>
      <trkpt lat="45.0414" lon="4.68598">
        <ele>338.8</ele>
        <time>2019-05-30T09:27:16.000Z</time>
      </trkpt>
      <trkpt lat="45.04135" lon="4.68639">
        <ele>337.55</ele>
        <time>2019-05-30T09:27:36.000Z</time>
      </trkpt>
      <trkpt lat="45.04127" lon="4.68675">
        <ele>336.72</ele>
        <time>2019-05-30T09:27:56.000Z</time>
      </trkpt>
      <trkpt lat="45.04137" lon="4.68712">
        <ele>336.65</ele>
        <time>2019-05-30T09:28:16.000Z</time>
      </trkpt>
      <trkpt lat="45.04124" lon="4.68745">
        <ele>335.62</ele>
        <time>2019-05-30T09:28:36.000Z</time>
      </trkpt>
      <trkpt lat="45.04109" lon="4.68779">
        <ele>333.18</ele>
        <time>2019-05-30T09:28:56.000Z</time>
      </trkpt>
      <trkpt lat="45.04093" lon="4.68814">
        <ele>328.43</ele>
        <time>2019-05-30T09:29:16.000Z</time>
      </trkpt>
      <trkpt lat="45.04073" lon="4.68843">
        <ele>321.89</ele>
        <time>2019-05-30T09:29:36.000Z</time>
      </trkpt>
      <trkpt lat="45.04051" lon="4.68861">
        <ele>314.49</ele>
        <time>2019-05-30T09:29:56.000Z</time>
      </trkpt>
      <trkpt lat="45.04027" lon="4.68877">
        <ele>306.7</ele>
        <time>2019-05-30T09:30:16.000Z</time>
      </trkpt>
      <trkpt lat="45.04007" lon="4.68898">
        <ele>300.39</ele>
        <time>2019-05-30T09:30:36.000Z</time>
      </trkpt>
      <trkpt lat="45.04002" lon="4.6894">
        <ele>298.07</ele>
        <time>2019-05-30T09:30:56.000Z</time>
      </trkpt>
      <trkpt lat="45.04003" lon="4.68982">
        <ele>296.4</ele>
        <time>2019-05-30T09:31:16.000Z</time>
      </trkpt>
      <trkpt lat="45.03994" lon="4.6902">
        <ele>292.78</ele>
        <time>2019-05-30T09:31:36.000Z</time>
      </trkpt>
      <trkpt lat="45.03982" lon="4.69053">
        <ele>288.95</ele>
        <time>2019-05-30T09:31:56.000Z</time>
      </trkpt>
      <trkpt lat="45.03978" lon="4.69091">
        <ele>286.99</ele>
        <time>2019-05-30T09:32:16.000Z</time>
      </trkpt>
      <trkpt lat="45.03982" lon="4.69121">
        <ele>286.25</ele>
        <time>2019-05-30T09:32:36.000Z</time>
      </trkpt>
      <trkpt lat="45.03993" lon="4.69117">
        <ele>287.06</ele>
        <time>2019-05-30T09:32:56.000Z</time>
      </trkpt>
      <trkpt lat="45.03968" lon="4.69142">
        <ele>285.07</ele>
        <time>2019-05-30T09:33:16.000Z</time>
      </trkpt>
      <trkpt lat="45.0394" lon="4.69178">
        <ele>284.66</ele>
        <time>2019-05-30T09:33:36.000Z</time>
      </trkpt>
      <trkpt lat="45.03922" lon="4.69201">
        <ele>283.91</ele>
        <time>2019-05-30T09:33:56.000Z</time>
      </trkpt>
      <trkpt lat="45.03916" lon="4.69202">
        <ele>283.69</ele>
        <time>2019-05-30T09:34:16.000Z</time>
      </trkpt>
      <trkpt lat="45.0391" lon="4.692">
        <ele>283.46</ele>
        <time>2019-05-30T09:34:36.000Z</time>
      </trkpt>
      <trkpt lat="45.03877" lon="4.69202">
        <ele>279.67</ele>
        <time>2019-05-30T09:34:56.000Z</time>
      </trkpt>
      <trkpt lat="45.03846" lon="4.69206">
        <ele>275.07</ele>
        <time>2019-05-30T09:35:16.000Z</time>
      </trkpt>
      <trkpt lat="45.03819" lon="4.69225">
        <ele>271.53</ele>
        <time>2019-05-30T09:35:36.000Z</time>
      </trkpt>
      <trkpt lat="45.03804" lon="4.69254">
        <ele>268.61</ele>
        <time>2019-05-30T09:35:56.000Z</time>
      </trkpt>
      <trkpt lat="45.03801" lon="4.69288">
        <ele>266.64</ele>
        <time>2019-05-30T09:36:16.000Z</time>
      </trkpt>
      <trkpt lat="45.03816" lon="4.69317">
        <ele>267.79</ele>
        <time>2019-05-30T09:36:36.000Z</time>
      </trkpt>
      <trkpt lat="45.03832" lon="4.69341">
        <ele>268.02</ele>
        <time>2019-05-30T09:36:56.000Z</time>
      </trkpt>
      <trkpt lat="45.03861" lon="4.69358">
        <ele>266.85</ele>
        <time>2019-05-30T09:37:16.000Z</time>
      </trkpt>
      <trkpt lat="45.03886" lon="4.69378">
        <ele>263.77</ele>
        <time>2019-05-30T09:37:36.000Z</time>
      </trkpt>
      <trkpt lat="45.03914" lon="4.69382">
        <ele>263.64</ele>
        <time>2019-05-30T09:37:56.000Z</time>
      </trkpt>
      <trkpt lat="45.03944" lon="4.69379">
        <ele>263.74</ele>
        <time>2019-05-30T09:38:16.000Z</time>
      </trkpt>
      <trkpt lat="45.03958" lon="4.69371">
        <ele>264.67</ele>
        <time>2019-05-30T09:38:36.000Z</time>
      </trkpt>
      <trkpt lat="45.03985" lon="4.69347">
        <ele>266.61</ele>
        <time>2019-05-30T09:38:56.000Z</time>
      </trkpt>
      <trkpt lat="45.0402" lon="4.69329">
        <ele>265.53</ele>
        <time>2019-05-30T09:39:16.000Z</time>
      </trkpt>
      <trkpt lat="45.04043" lon="4.69329">
        <ele>262.86</ele>
        <time>2019-05-30T09:39:36.000Z</time>
      </trkpt>
      <trkpt lat="45.04075" lon="4.69329">
        <ele>259.83</ele>
        <time>2019-05-30T09:39:56.000Z</time>
      </trkpt>
      <trkpt lat="45.04098" lon="4.6931">
        <ele>260.74</ele>
        <time>2019-05-30T09:40:16.000Z</time>
      </trkpt>
      <trkpt lat="45.04113" lon="4.69339">
        <ele>256.98</ele>
        <time>2019-05-30T09:40:36.000Z</time>
      </trkpt>
      <trkpt lat="45.04114" lon="4.6938">
        <ele>253.47</ele>
        <time>2019-05-30T09:40:56.000Z</time>
      </trkpt>
      <trkpt lat="45.0412" lon="4.69423">
        <ele>251.31</ele>
        <time>2019-05-30T09:41:16.000Z</time>
      </trkpt>
      <trkpt lat="45.04122" lon="4.69461">
        <ele>251.45</ele>
        <time>2019-05-30T09:41:36.000Z</time>
      </trkpt>
      <trkpt lat="45.04099" lon="4.69457">
        <ele>252.53</ele>
        <time>2019-05-30T09:41:56.000Z</time>
      </trkpt>
      <trkpt lat="45.04071" lon="4.69452">
        <ele>254.17</ele>
        <time>2019-05-30T09:42:16.000Z</time>
      </trkpt>
      <trkpt lat="45.04047" lon="4.69465">
        <ele>256.42</ele>
        <time>2019-05-30T09:42:36.000Z</time>
      </trkpt>
      <trkpt lat="45.04021" lon="4.69468">
        <ele>259.09</ele>
        <time>2019-05-30T09:42:56.000Z</time>
      </trkpt>
      <trkpt lat="45.03993" lon="4.69468">
        <ele>261.08</ele>
        <time>2019-05-30T09:43:16.000Z</time>
      </trkpt>
      <trkpt lat="45.03976" lon="4.69468">
        <ele>261.78</ele>
        <time>2019-05-30T09:43:36.000Z</time>
      </trkpt>
      <trkpt lat="45.03958" lon="4.69468">
        <ele>262.3</ele>
        <time>2019-05-30T10:05:21.000Z</time>
      </trkpt>
      <trkpt lat="45.03925" lon="4.69479">
        <ele>264.86</ele>
        <time>2019-05-30T10:05:41.000Z</time>
      </trkpt>
      <trkpt lat="45.03897" lon="4.69479">
        <ele>266.05</ele>
        <time>2019-05-30T10:06:27.000Z</time>
      </trkpt>
      <trkpt lat="45.03876" lon="4.69492">
        <ele>270.19</ele>
        <time>2019-05-30T10:08:19.000Z</time>
      </trkpt>
      <trkpt lat="45.03853" lon="4.69488">
        <ele>271.09</ele>
        <time>2019-05-30T10:11:08.000Z</time>
      </trkpt>
      <trkpt lat="45.03824" lon="4.69485">
        <ele>274.63</ele>
        <time>2019-05-30T10:11:28.000Z</time>
      </trkpt>
      <trkpt lat="45.03798" lon="4.69472">
        <ele>275.54</ele>
        <time>2019-05-30T10:27:24.000Z</time>
      </trkpt>
      <trkpt lat="45.03774" lon="4.69468">
        <ele>279.69</ele>
        <time>2019-05-30T10:27:44.000Z</time>
      </trkpt>
      <trkpt lat="45.03753" lon="4.69442">
        <ele>275.15</ele>
        <time>2019-05-30T10:28:04.000Z</time>
      </trkpt>
      <trkpt lat="45.03737" lon="4.6942">
        <ele>274.4</ele>
        <time>2019-05-30T10:28:24.000Z</time>
      </trkpt>
      <trkpt lat="45.0372" lon="4.69394">
        <ele>275.77</ele>
        <time>2019-05-30T10:28:44.000Z</time>
      </trkpt>
      <trkpt lat="45.03708" lon="4.69372">
        <ele>277.1</ele>
        <time>2019-05-30T10:29:04.000Z</time>
      </trkpt>
      <trkpt lat="45.03693" lon="4.69345">
        <ele>278.34</ele>
        <time>2019-05-30T10:29:24.000Z</time>
      </trkpt>
      <trkpt lat="45.03681" lon="4.69314">
        <ele>277.69</ele>
        <time>2019-05-30T10:29:44.000Z</time>
      </trkpt>
      <trkpt lat="45.03676" lon="4.69276">
        <ele>274.6</ele>
        <time>2019-05-30T10:30:04.000Z</time>
      </trkpt>
      <trkpt lat="45.03671" lon="4.69241">
        <ele>273.71</ele>
        <time>2019-05-30T10:30:24.000Z</time>
      </trkpt>
      <trkpt lat="45.03672" lon="4.69204">
        <ele>272.87</ele>
        <time>2019-05-30T10:30:44.000Z</time>
      </trkpt>
      <trkpt lat="45.03671" lon="4.69171">
        <ele>272.97</ele>
        <time>2019-05-30T10:31:04.000Z</time>
      </trkpt>
      <trkpt lat="45.03664" lon="4.69133">
        <ele>272.26</ele>
        <time>2019-05-30T10:31:24.000Z</time>
      </trkpt>
      <trkpt lat="45.03667" lon="4.69096">
        <ele>268.8</ele>
        <time>2019-05-30T10:31:44.000Z</time>
      </trkpt>
      <trkpt lat="45.03661" lon="4.69064">
        <ele>267.75</ele>
        <time>2019-05-30T10:32:04.000Z</time>
      </trkpt>
      <trkpt lat="45.03678" lon="4.69035">
        <ele>264.56</ele>
        <time>2019-05-30T10:32:24.000Z</time>
      </trkpt>
      <trkpt lat="45.03675" lon="4.69002">
        <ele>264.1</ele>
        <time>2019-05-30T10:32:44.000Z</time>
      </trkpt>
      <trkpt lat="45.03683" lon="4.68968">
        <ele>263.48</ele>
        <time>2019-05-30T10:33:04.000Z</time>
      </trkpt>
      <trkpt lat="45.03687" lon="4.68936">
        <ele>263.87</ele>
        <time>2019-05-30T10:33:24.000Z</time>
      </trkpt>
      <trkpt lat="45.03692" lon="4.68896">
        <ele>265.28</ele>
        <time>2019-05-30T10:33:44.000Z</time>
      </trkpt>
      <trkpt lat="45.03705" lon="4.68854">
        <ele>267.32</ele>
        <time>2019-05-30T10:34:04.000Z</time>
      </trkpt>
      <trkpt lat="45.03716" lon="4.6882">
        <ele>268.08</ele>
        <time>2019-05-30T10:34:24.000Z</time>
      </trkpt>
      <trkpt lat="45.03715" lon="4.6878">
        <ele>268.24</ele>
        <time>2019-05-30T10:34:44.000Z</time>
      </trkpt>
      <trkpt lat="45.03707" lon="4.6874">
        <ele>270.18</ele>
        <time>2019-05-30T10:35:04.000Z</time>
      </trkpt>
      <trkpt lat="45.037" lon="4.68707">
        <ele>273.12</ele>
        <time>2019-05-30T10:35:24.000Z</time>
      </trkpt>
      <trkpt lat="45.03688" lon="4.68675">
        <ele>276.79</ele>
        <time>2019-05-30T10:35:44.000Z</time>
      </trkpt>
      <trkpt lat="45.03675" lon="4.68643">
        <ele>280.46</ele>
        <time>2019-05-30T10:36:04.000Z</time>
      </trkpt>
      <trkpt lat="45.03665" lon="4.68612">
        <ele>283.59</ele>
        <time>2019-05-30T10:36:24.000Z</time>
      </trkpt>
      <trkpt lat="45.03655" lon="4.68587">
        <ele>285.62</ele>
        <time>2019-05-30T10:36:44.000Z</time>
      </trkpt>
      <trkpt lat="45.03657" lon="4.68557">
        <ele>287.83</ele>
        <time>2019-05-30T10:37:04.000Z</time>
      </trkpt>
      <trkpt lat="45.03663" lon="4.68526">
        <ele>290.16</ele>
        <time>2019-05-30T10:37:24.000Z</time>
      </trkpt>
      <trkpt lat="45.03671" lon="4.685">
        <ele>292.12</ele>
        <time>2019-05-30T10:37:44.000Z</time>
      </trkpt>
      <trkpt lat="45.0369" lon="4.68475">
        <ele>294.35</ele>
        <time>2019-05-30T10:38:04.000Z</time>
      </trkpt>
      <trkpt lat="45.03707" lon="4.6845">
        <ele>296.7</ele>
        <time>2019-05-30T10:38:24.000Z</time>
      </trkpt>
      <trkpt lat="45.03717" lon="4.68419">
        <ele>299.43</ele>
        <time>2019-05-30T10:38:44.000Z</time>
      </trkpt>
      <trkpt lat="45.0371" lon="4.68385">
        <ele>301.29</ele>
        <time>2019-05-30T10:39:04.000Z</time>
      </trkpt>
      <trkpt lat="45.0369" lon="4.68361">
        <ele>302.34</ele>
        <time>2019-05-30T10:39:24.000Z</time>
      </trkpt>
      <trkpt lat="45.03676" lon="4.68331">
        <ele>304.33</ele>
        <time>2019-05-30T10:39:44.000Z</time>
      </trkpt>
      <trkpt lat="45.03671" lon="4.68292">
        <ele>306.7</ele>
        <time>2019-05-30T10:40:04.000Z</time>
      </trkpt>
      <trkpt lat="45.03669" lon="4.68256">
        <ele>308.68</ele>
        <time>2019-05-30T10:40:24.000Z</time>
      </trkpt>
      <trkpt lat="45.03662" lon="4.68223">
        <ele>310.34</ele>
        <time>2019-05-30T10:40:44.000Z</time>
      </trkpt>
      <trkpt lat="45.03657" lon="4.68191">
        <ele>312.01</ele>
        <time>2019-05-30T10:41:04.000Z</time>
      </trkpt>
      <trkpt lat="45.03653" lon="4.68167">
        <ele>313.61</ele>
        <time>2019-05-30T10:41:24.000Z</time>
      </trkpt>
      <trkpt lat="45.03642" lon="4.68149">
        <ele>315.06</ele>
        <time>2019-05-30T10:41:44.000Z</time>
      </trkpt>
      <trkpt lat="45.03643" lon="4.68126">
        <ele>317.78</ele>
        <time>2019-05-30T10:42:04.000Z</time>
      </trkpt>
      <trkpt lat="45.03642" lon="4.6812">
        <ele>316.8</ele>
        <time>2019-05-30T10:42:24.000Z</time>
      </trkpt>
      <trkpt lat="45.03624" lon="4.68132">
        <ele>315.7</ele>
        <time>2019-05-30T10:42:44.000Z</time>
      </trkpt>
      <trkpt lat="45.03603" lon="4.68143">
        <ele>314.5</ele>
        <time>2019-05-30T10:43:04.000Z</time>
      </trkpt>
      <trkpt lat="45.03584" lon="4.68147">
        <ele>313.6</ele>
        <time>2019-05-30T10:43:24.000Z</time>
      </trkpt>
      <trkpt lat="45.03559" lon="4.6815">
        <ele>309.8</ele>
        <time>2019-05-30T10:43:44.000Z</time>
      </trkpt>
      <trkpt lat="45.03533" lon="4.68151">
        <ele>308.6</ele>
        <time>2019-05-30T10:44:04.000Z</time>
      </trkpt>
      <trkpt lat="45.03506" lon="4.68149">
        <ele>307.4</ele>
        <time>2019-05-30T10:44:24.000Z</time>
      </trkpt>
      <trkpt lat="45.03484" lon="4.68155">
        <ele>304.3</ele>
        <time>2019-05-30T10:44:44.000Z</time>
      </trkpt>
      <trkpt lat="45.03466" lon="4.68166">
        <ele>303.68</ele>
        <time>2019-05-30T10:45:04.000Z</time>
      </trkpt>
      <trkpt lat="45.03453" lon="4.68169">
        <ele>303.05</ele>
        <time>2019-05-30T10:45:24.000Z</time>
      </trkpt>
      <trkpt lat="45.03457" lon="4.68171">
        <ele>303.33</ele>
        <time>2019-05-30T10:45:44.000Z</time>
      </trkpt>
      <trkpt lat="45.03462" lon="4.68171">
        <ele>303.58</ele>
        <time>2019-05-30T10:46:04.000Z</time>
      </trkpt>
      <trkpt lat="45.03456" lon="4.68172">
        <ele>303.31</ele>
        <time>2019-05-30T10:46:24.000Z</time>
      </trkpt>
      <trkpt lat="45.03434" lon="4.68174">
        <ele>303.1</ele>
        <time>2019-05-30T10:46:44.000Z</time>
      </trkpt>
      <trkpt lat="45.03406" lon="4.68151">
        <ele>304.41</ele>
        <time>2019-05-30T10:47:04.000Z</time>
      </trkpt>
      <trkpt lat="45.03387" lon="4.68132">
        <ele>306.35</ele>
        <time>2019-05-30T10:47:24.000Z</time>
      </trkpt>
      <trkpt lat="45.03372" lon="4.68116">
        <ele>308.27</ele>
        <time>2019-05-30T10:47:44.000Z</time>
      </trkpt>
      <trkpt lat="45.0335" lon="4.68103">
        <ele>312.16</ele>
        <time>2019-05-30T10:48:04.000Z</time>
      </trkpt>
      <trkpt lat="45.03328" lon="4.68085">
        <ele>314.23</ele>
        <time>2019-05-30T10:48:24.000Z</time>
      </trkpt>
      <trkpt lat="45.03307" lon="4.68064">
        <ele>314.73</ele>
        <time>2019-05-30T10:48:44.000Z</time>
      </trkpt>
      <trkpt lat="45.03283" lon="4.68049">
        <ele>315.02</ele>
        <time>2019-05-30T10:49:04.000Z</time>
      </trkpt>
      <trkpt lat="45.03263" lon="4.68061">
        <ele>321.34</ele>
        <time>2019-05-30T10:49:24.000Z</time>
      </trkpt>
      <trkpt lat="45.03246" lon="4.68063">
        <ele>323.38</ele>
        <time>2019-05-30T10:49:44.000Z</time>
      </trkpt>
      <trkpt lat="45.03221" lon="4.68061">
        <ele>321.7</ele>
        <time>2019-05-30T10:50:04.000Z</time>
      </trkpt>
      <trkpt lat="45.03205" lon="4.68063">
        <ele>320.45</ele>
        <time>2019-05-30T10:50:24.000Z</time>
      </trkpt>
      <trkpt lat="45.03183" lon="4.68078">
        <ele>322.48</ele>
        <time>2019-05-30T10:50:44.000Z</time>
      </trkpt>
      <trkpt lat="45.03156" lon="4.68091">
        <ele>324.85</ele>
        <time>2019-05-30T10:51:04.000Z</time>
      </trkpt>
      <trkpt lat="45.03145" lon="4.68094">
        <ele>325.06</ele>
        <time>2019-05-30T10:51:24.000Z</time>
      </trkpt>
      <trkpt lat="45.03114" lon="4.68109">
        <ele>327.09</ele>
        <time>2019-05-30T10:51:44.000Z</time>
      </trkpt>
      <trkpt lat="45.0309" lon="4.68123">
        <ele>328.57</ele>
        <time>2019-05-30T10:52:04.000Z</time>
      </trkpt>
      <trkpt lat="45.03061" lon="4.68138">
        <ele>331.86</ele>
        <time>2019-05-30T10:52:24.000Z</time>
      </trkpt>
      <trkpt lat="45.03046" lon="4.6817">
        <ele>335.36</ele>
        <time>2019-05-30T10:53:21.000Z</time>
      </trkpt>
      <trkpt lat="45.03026" lon="4.68171">
        <ele>336.37</ele>
        <time>2019-05-30T10:53:41.000Z</time>
      </trkpt>
      <trkpt lat="45.02998" lon="4.68177">
        <ele>339.35</ele>
        <time>2019-05-30T10:54:01.000Z</time>
      </trkpt>
      <trkpt lat="45.02978" lon="4.68179">
        <ele>342.5</ele>
        <time>2019-05-30T10:54:21.000Z</time>
      </trkpt>
      <trkpt lat="45.02951" lon="4.68201">
        <ele>347.29</ele>
        <time>2019-05-30T10:54:41.000Z</time>
      </trkpt>
      <trkpt lat="45.02963" lon="4.68181">
        <ele>345.34</ele>
        <time>2019-05-30T10:55:01.000Z</time>
      </trkpt>
      <trkpt lat="45.02984" lon="4.68161">
        <ele>342.08</ele>
        <time>2019-05-30T10:55:21.000Z</time>
      </trkpt>
      <trkpt lat="45.03008" lon="4.68147">
        <ele>339.58</ele>
        <time>2019-05-30T10:55:41.000Z</time>
      </trkpt>
      <trkpt lat="45.03021" lon="4.68119">
        <ele>342.09</ele>
        <time>2019-05-30T10:56:01.000Z</time>
      </trkpt>
      <trkpt lat="45.03035" lon="4.68094">
        <ele>342.43</ele>
        <time>2019-05-30T10:56:21.000Z</time>
      </trkpt>
      <trkpt lat="45.03039" lon="4.68057">
        <ele>349.23</ele>
        <time>2019-05-30T10:56:41.000Z</time>
      </trkpt>
      <trkpt lat="45.03052" lon="4.6803">
        <ele>351.52</ele>
        <time>2019-05-30T10:57:01.000Z</time>
      </trkpt>
      <trkpt lat="45.03074" lon="4.68016">
        <ele>346.17</ele>
        <time>2019-05-30T10:57:21.000Z</time>
      </trkpt>
      <trkpt lat="45.031" lon="4.67994">
        <ele>339.79</ele>
        <time>2019-05-30T10:57:41.000Z</time>
      </trkpt>
      <trkpt lat="45.03108" lon="4.67964">
        <ele>340.94</ele>
        <time>2019-05-30T10:58:01.000Z</time>
      </trkpt>
      <trkpt lat="45.03106" lon="4.67934">
        <ele>345.31</ele>
        <time>2019-05-30T10:58:21.000Z</time>
      </trkpt>
      <trkpt lat="45.03083" lon="4.67905">
        <ele>354.2</ele>
        <time>2019-05-30T10:58:41.000Z</time>
      </trkpt>
      <trkpt lat="45.03062" lon="4.67898">
        <ele>361.08</ele>
        <time>2019-05-30T10:59:01.000Z</time>
      </trkpt>
      <trkpt lat="45.03037" lon="4.67897">
        <ele>369.84</ele>
        <time>2019-05-30T10:59:21.000Z</time>
      </trkpt>
      <trkpt lat="45.03017" lon="4.67882">
        <ele>374.28</ele>
        <time>2019-05-30T10:59:41.000Z</time>
      </trkpt>
      <trkpt lat="45.02997" lon="4.67864">
        <ele>378.59</ele>
        <time>2019-05-30T11:00:01.000Z</time>
      </trkpt>
      <trkpt lat="45.02995" lon="4.67849">
        <ele>377</ele>
        <time>2019-05-30T11:00:21.000Z</time>
      </trkpt>
      <trkpt lat="45.02997" lon="4.67815">
        <ele>369.7</ele>
        <time>2019-05-30T11:00:41.000Z</time>
      </trkpt>
      <trkpt lat="45.0298" lon="4.67788">
        <ele>371.8</ele>
        <time>2019-05-30T11:01:01.000Z</time>
      </trkpt>
      <trkpt lat="45.02959" lon="4.67769">
        <ele>374.69</ele>
        <time>2019-05-30T11:01:21.000Z</time>
      </trkpt>
      <trkpt lat="45.02939" lon="4.67756">
        <ele>378.23</ele>
        <time>2019-05-30T11:01:41.000Z</time>
      </trkpt>
      <trkpt lat="45.02916" lon="4.67756">
        <ele>386.12</ele>
        <time>2019-05-30T11:02:01.000Z</time>
      </trkpt>
      <trkpt lat="45.02901" lon="4.67744">
        <ele>388.05</ele>
        <time>2019-05-30T11:02:21.000Z</time>
      </trkpt>
      <trkpt lat="45.02882" lon="4.67718">
        <ele>387.15</ele>
        <time>2019-05-30T11:02:41.000Z</time>
      </trkpt>
      <trkpt lat="45.02866" lon="4.67697">
        <ele>387.73</ele>
        <time>2019-05-30T11:03:01.000Z</time>
      </trkpt>
      <trkpt lat="45.02864" lon="4.67661">
        <ele>380.33</ele>
        <time>2019-05-30T11:03:21.000Z</time>
      </trkpt>
      <trkpt lat="45.02889" lon="4.67632">
        <ele>364.35</ele>
        <time>2019-05-30T11:03:41.000Z</time>
      </trkpt>
      <trkpt lat="45.02884" lon="4.67591">
        <ele>361.15</ele>
        <time>2019-05-30T11:04:01.000Z</time>
      </trkpt>
      <trkpt lat="45.02882" lon="4.67561">
        <ele>355.72</ele>
        <time>2019-05-30T11:04:21.000Z</time>
      </trkpt>
      <trkpt lat="45.02872" lon="4.67534">
        <ele>353.44</ele>
        <time>2019-05-30T11:04:41.000Z</time>
      </trkpt>
      <trkpt lat="45.02868" lon="4.67499">
        <ele>345.68</ele>
        <time>2019-05-30T11:05:01.000Z</time>
      </trkpt>
      <trkpt lat="45.02845" lon="4.6747">
        <ele>346.73</ele>
        <time>2019-05-30T11:05:21.000Z</time>
      </trkpt>
      <trkpt lat="45.02832" lon="4.67447">
        <ele>344.98</ele>
        <time>2019-05-30T11:05:41.000Z</time>
      </trkpt>
      <trkpt lat="45.02809" lon="4.67441">
        <ele>353.04</ele>
        <time>2019-05-30T11:06:01.000Z</time>
      </trkpt>
      <trkpt lat="45.02817" lon="4.67427">
        <ele>346.81</ele>
        <time>2019-05-30T11:06:21.000Z</time>
      </trkpt>
      <trkpt lat="45.02824" lon="4.67395">
        <ele>340.62</ele>
        <time>2019-05-30T11:06:41.000Z</time>
      </trkpt>
      <trkpt lat="45.02821" lon="4.67366">
        <ele>342.13</ele>
        <time>2019-05-30T11:07:01.000Z</time>
      </trkpt>
      <trkpt lat="45.02838" lon="4.67347">
        <ele>334.64</ele>
        <time>2019-05-30T11:07:21.000Z</time>
      </trkpt>
      <trkpt lat="45.02865" lon="4.67333">
        <ele>322.18</ele>
        <time>2019-05-30T11:07:41.000Z</time>
      </trkpt>
      <trkpt lat="45.02863" lon="4.67313">
        <ele>322.63</ele>
        <time>2019-05-30T11:08:01.000Z</time>
      </trkpt>
      <trkpt lat="45.0286" lon="4.67285">
        <ele>323.94</ele>
        <time>2019-05-30T11:08:21.000Z</time>
      </trkpt>
      <trkpt lat="45.02854" lon="4.67248">
        <ele>325.03</ele>
        <time>2019-05-30T11:08:41.000Z</time>
      </trkpt>
      <trkpt lat="45.02846" lon="4.67213">
        <ele>325.54</ele>
        <time>2019-05-30T11:09:01.000Z</time>
      </trkpt>
      <trkpt lat="45.02832" lon="4.67183">
        <ele>327.05</ele>
        <time>2019-05-30T11:09:21.000Z</time>
      </trkpt>
      <trkpt lat="45.02813" lon="4.67155">
        <ele>329.74</ele>
        <time>2019-05-30T11:09:41.000Z</time>
      </trkpt>
      <trkpt lat="45.02787" lon="4.67145">
        <ele>338.48</ele>
        <time>2019-05-30T11:10:01.000Z</time>
      </trkpt>
      <trkpt lat="45.02771" lon="4.67125">
        <ele>340.81</ele>
        <time>2019-05-30T11:10:21.000Z</time>
      </trkpt>
      <trkpt lat="45.02752" lon="4.67113">
        <ele>345.6</ele>
        <time>2019-05-30T11:10:41.000Z</time>
      </trkpt>
      <trkpt lat="45.02734" lon="4.671">
        <ele>348.98</ele>
        <time>2019-05-30T11:11:01.000Z</time>
      </trkpt>
      <trkpt lat="45.02719" lon="4.67079">
        <ele>348.67</ele>
        <time>2019-05-30T11:11:21.000Z</time>
      </trkpt>
      <trkpt lat="45.02699" lon="4.6707">
        <ele>352.16</ele>
        <time>2019-05-30T11:11:41.000Z</time>
      </trkpt>
      <trkpt lat="45.02683" lon="4.67069">
        <ele>357</ele>
        <time>2019-05-30T11:12:01.000Z</time>
      </trkpt>
      <trkpt lat="45.0269" lon="4.67074">
        <ele>356.45</ele>
        <time>2019-05-30T11:12:21.000Z</time>
      </trkpt>
      <trkpt lat="45.02701" lon="4.67096">
        <ele>358.46</ele>
        <time>2019-05-30T11:12:41.000Z</time>
      </trkpt>
      <trkpt lat="45.02703" lon="4.67103">
        <ele>359.93</ele>
        <time>2019-05-30T11:13:01.000Z</time>
      </trkpt>
      <trkpt lat="45.02714" lon="4.6713">
        <ele>363.09</ele>
        <time>2019-05-30T11:13:21.000Z</time>
      </trkpt>
      <trkpt lat="45.02727" lon="4.67159">
        <ele>364.85</ele>
        <time>2019-05-30T11:13:41.000Z</time>
      </trkpt>
      <trkpt lat="45.02733" lon="4.6717">
        <ele>364.29</ele>
        <time>2019-05-30T11:14:01.000Z</time>
      </trkpt>
      <trkpt lat="45.02731" lon="4.67207">
        <ele>372.69</ele>
        <time>2019-05-30T11:14:21.000Z</time>
      </trkpt>
      <trkpt lat="45.02733" lon="4.67244">
        <ele>378.41</ele>
        <time>2019-05-30T11:14:41.000Z</time>
      </trkpt>
      <trkpt lat="45.02747" lon="4.67262">
        <ele>374.59</ele>
        <time>2019-05-30T11:15:01.000Z</time>
      </trkpt>
      <trkpt lat="45.02759" lon="4.67293">
        <ele>372.68</ele>
        <time>2019-05-30T11:15:21.000Z</time>
      </trkpt>
      <trkpt lat="45.02751" lon="4.67298">
        <ele>376.84</ele>
        <time>2019-05-30T11:15:41.000Z</time>
      </trkpt>
      <trkpt lat="45.02734" lon="4.6728">
        <ele>382.63</ele>
        <time>2019-05-30T11:16:01.000Z</time>
      </trkpt>
      <trkpt lat="45.02709" lon="4.67261">
        <ele>391.21</ele>
        <time>2019-05-30T11:16:21.000Z</time>
      </trkpt>
      <trkpt lat="45.02696" lon="4.67228">
        <ele>390.96</ele>
        <time>2019-05-30T11:16:41.000Z</time>
      </trkpt>
      <trkpt lat="45.0268" lon="4.67204">
        <ele>392.01</ele>
        <time>2019-05-30T11:17:01.000Z</time>
      </trkpt>
      <trkpt lat="45.02664" lon="4.67188">
        <ele>393.44</ele>
        <time>2019-05-30T11:17:21.000Z</time>
      </trkpt>
      <trkpt lat="45.02643" lon="4.67168">
        <ele>393.41</ele>
        <time>2019-05-30T11:17:51.000Z</time>
      </trkpt>
      <trkpt lat="45.02621" lon="4.67176">
        <ele>398.11</ele>
        <time>2019-05-30T11:18:11.000Z</time>
      </trkpt>
      <trkpt lat="45.02597" lon="4.67183">
        <ele>401.57</ele>
        <time>2019-05-30T11:18:31.000Z</time>
      </trkpt>
      <trkpt lat="45.02586" lon="4.67187">
        <ele>403.24</ele>
        <time>2019-05-30T11:18:51.000Z</time>
      </trkpt>
      <trkpt lat="45.02569" lon="4.67198">
        <ele>406.52</ele>
        <time>2019-05-30T11:19:11.000Z</time>
      </trkpt>
      <trkpt lat="45.02545" lon="4.6719">
        <ele>407.54</ele>
        <time>2019-05-30T11:19:31.000Z</time>
      </trkpt>
      <trkpt lat="45.02537" lon="4.67172">
        <ele>406.24</ele>
        <time>2019-05-30T11:19:51.000Z</time>
      </trkpt>
      <trkpt lat="45.02552" lon="4.67149">
        <ele>402.67</ele>
        <time>2019-05-30T11:20:11.000Z</time>
      </trkpt>
      <trkpt lat="45.02569" lon="4.67119">
        <ele>398.25</ele>
        <time>2019-05-30T11:20:31.000Z</time>
      </trkpt>
      <trkpt lat="45.02559" lon="4.67099">
        <ele>398.32</ele>
        <time>2019-05-30T11:20:51.000Z</time>
      </trkpt>
      <trkpt lat="45.0254" lon="4.67066">
        <ele>398.37</ele>
        <time>2019-05-30T11:21:11.000Z</time>
      </trkpt>
      <trkpt lat="45.02524" lon="4.67028">
        <ele>396.95</ele>
        <time>2019-05-30T11:21:31.000Z</time>
      </trkpt>
      <trkpt lat="45.02508" lon="4.67005">
        <ele>397.14</ele>
        <time>2019-05-30T11:21:51.000Z</time>
      </trkpt>
      <trkpt lat="45.02494" lon="4.66979">
        <ele>397.57</ele>
        <time>2019-05-30T11:22:11.000Z</time>
      </trkpt>
      <trkpt lat="45.02505" lon="4.66974">
        <ele>395.5</ele>
        <time>2019-05-30T11:22:31.000Z</time>
      </trkpt>
      <trkpt lat="45.02526" lon="4.66954">
        <ele>390.59</ele>
        <time>2019-05-30T11:22:51.000Z</time>
      </trkpt>
      <trkpt lat="45.02516" lon="4.66918">
        <ele>389.2</ele>
        <time>2019-05-30T11:23:11.000Z</time>
      </trkpt>
      <trkpt lat="45.02502" lon="4.66882">
        <ele>386.31</ele>
        <time>2019-05-30T11:23:31.000Z</time>
      </trkpt>
      <trkpt lat="45.02493" lon="4.66849">
        <ele>382.11</ele>
        <time>2019-05-30T11:23:51.000Z</time>
      </trkpt>
      <trkpt lat="45.02488" lon="4.66815">
        <ele>377.08</ele>
        <time>2019-05-30T11:24:11.000Z</time>
      </trkpt>
      <trkpt lat="45.0248" lon="4.6678">
        <ele>372.13</ele>
        <time>2019-05-30T11:24:31.000Z</time>
      </trkpt>
      <trkpt lat="45.02468" lon="4.66753">
        <ele>369.89</ele>
        <time>2019-05-30T11:24:51.000Z</time>
      </trkpt>
      <trkpt lat="45.02455" lon="4.66726">
        <ele>368.48</ele>
        <time>2019-05-30T11:25:11.000Z</time>
      </trkpt>
      <trkpt lat="45.02446" lon="4.66725">
        <ele>369.6</ele>
        <time>2019-05-30T11:25:31.000Z</time>
      </trkpt>
      <trkpt lat="45.02449" lon="4.66713">
        <ele>367.77</ele>
        <time>2019-05-30T11:25:51.000Z</time>
      </trkpt>
      <trkpt lat="45.02458" lon="4.66683">
        <ele>362.97</ele>
        <time>2019-05-30T11:26:11.000Z</time>
      </trkpt>
      <trkpt lat="45.02486" lon="4.66681">
        <ele>359.84</ele>
        <time>2019-05-30T11:26:31.000Z</time>
      </trkpt>
      <trkpt lat="45.02512" lon="4.66672">
        <ele>356.39</ele>
        <time>2019-05-30T11:26:51.000Z</time>
      </trkpt>
      <trkpt lat="45.02506" lon="4.66643">
        <ele>353.46</ele>
        <time>2019-05-30T11:27:11.000Z</time>
      </trkpt>
      <trkpt lat="45.02479" lon="4.66622">
        <ele>352.57</ele>
        <time>2019-05-30T11:27:31.000Z</time>
      </trkpt>
      <trkpt lat="45.02455" lon="4.66608">
        <ele>353.12</ele>
        <time>2019-05-30T11:27:51.000Z</time>
      </trkpt>
      <trkpt lat="45.02429" lon="4.66602">
        <ele>355.17</ele>
        <time>2019-05-30T11:28:11.000Z</time>
      </trkpt>
      <trkpt lat="45.02431" lon="4.66561">
        <ele>350.38</ele>
        <time>2019-05-30T11:28:31.000Z</time>
      </trkpt>
      <trkpt lat="45.02425" lon="4.66523">
        <ele>347.47</ele>
        <time>2019-05-30T11:28:51.000Z</time>
      </trkpt>
      <trkpt lat="45.02411" lon="4.66487">
        <ele>344.94</ele>
        <time>2019-05-30T11:29:11.000Z</time>
      </trkpt>
      <trkpt lat="45.02394" lon="4.66459">
        <ele>341.99</ele>
        <time>2019-05-30T11:29:31.000Z</time>
      </trkpt>
      <trkpt lat="45.02378" lon="4.66437">
        <ele>339.88</ele>
        <time>2019-05-30T11:29:51.000Z</time>
      </trkpt>
      <trkpt lat="45.02345" lon="4.66437">
        <ele>341.71</ele>
        <time>2019-05-30T11:30:11.000Z</time>
      </trkpt>
      <trkpt lat="45.02316" lon="4.66435">
        <ele>344.82</ele>
        <time>2019-05-30T11:30:31.000Z</time>
      </trkpt>
      <trkpt lat="45.02303" lon="4.66413">
        <ele>346.77</ele>
        <time>2019-05-30T11:30:51.000Z</time>
      </trkpt>
      <trkpt lat="45.02335" lon="4.66387">
        <ele>342.96</ele>
        <time>2019-05-30T11:31:11.000Z</time>
      </trkpt>
      <trkpt lat="45.02352" lon="4.66355">
        <ele>343.31</ele>
        <time>2019-05-30T11:31:31.000Z</time>
      </trkpt>
      <trkpt lat="45.02364" lon="4.66321">
        <ele>343.46</ele>
        <time>2019-05-30T11:31:51.000Z</time>
      </trkpt>
      <trkpt lat="45.02379" lon="4.66291">
        <ele>343.6</ele>
        <time>2019-05-30T11:32:11.000Z</time>
      </trkpt>
      <trkpt lat="45.0239" lon="4.6626">
        <ele>344.78</ele>
        <time>2019-05-30T11:32:31.000Z</time>
      </trkpt>
      <trkpt lat="45.02413" lon="4.66242">
        <ele>345.19</ele>
        <time>2019-05-30T11:32:51.000Z</time>
      </trkpt>
      <trkpt lat="45.02433" lon="4.6622">
        <ele>344.68</ele>
        <time>2019-05-30T11:33:11.000Z</time>
      </trkpt>
      <trkpt lat="45.02455" lon="4.66195">
        <ele>343.7</ele>
        <time>2019-05-30T11:33:31.000Z</time>
      </trkpt>
      <trkpt lat="45.02475" lon="4.66165">
        <ele>342.22</ele>
        <time>2019-05-30T11:33:51.000Z</time>
      </trkpt>
      <trkpt lat="45.02495" lon="4.6614">
        <ele>340.39</ele>
        <time>2019-05-30T11:34:11.000Z</time>
      </trkpt>
      <trkpt lat="45.0251" lon="4.66114">
        <ele>337.93</ele>
        <time>2019-05-30T11:34:31.000Z</time>
      </trkpt>
      <trkpt lat="45.02537" lon="4.66101">
        <ele>335.88</ele>
        <time>2019-05-30T11:34:51.000Z</time>
      </trkpt>
      <trkpt lat="45.02563" lon="4.6608">
        <ele>333.02</ele>
        <time>2019-05-30T11:35:11.000Z</time>
      </trkpt>
      <trkpt lat="45.02591" lon="4.66063">
        <ele>330.48</ele>
        <time>2019-05-30T11:35:31.000Z</time>
      </trkpt>
      <trkpt lat="45.0261" lon="4.66052">
        <ele>328.81</ele>
        <time>2019-05-30T11:35:51.000Z</time>
      </trkpt>
      <trkpt lat="45.0262" lon="4.66044">
        <ele>327.48</ele>
        <time>2019-05-30T11:36:11.000Z</time>
      </trkpt>
      <trkpt lat="45.02637" lon="4.66021">
        <ele>322.83</ele>
        <time>2019-05-30T11:36:31.000Z</time>
      </trkpt>
      <trkpt lat="45.02657" lon="4.66011">
        <ele>320.52</ele>
        <time>2019-05-30T11:36:51.000Z</time>
      </trkpt>
      <trkpt lat="45.02663" lon="4.6601">
        <ele>320.25</ele>
        <time>2019-05-30T11:37:11.000Z</time>
      </trkpt>
      <trkpt lat="45.02668" lon="4.6601">
        <ele>320.07</ele>
        <time>2019-05-30T11:37:31.000Z</time>
      </trkpt>
      <trkpt lat="45.02685" lon="4.66011">
        <ele>320.13</ele>
        <time>2019-05-30T11:37:51.000Z</time>
      </trkpt>
      <trkpt lat="45.02714" lon="4.66004">
        <ele>318.76</ele>
        <time>2019-05-30T11:38:11.000Z</time>
      </trkpt>
      <trkpt lat="45.0274" lon="4.65997">
        <ele>317.23</ele>
        <time>2019-05-30T11:38:31.000Z</time>
      </trkpt>
      <trkpt lat="45.02762" lon="4.65978">
        <ele>312.45</ele>
        <time>2019-05-30T11:38:51.000Z</time>
      </trkpt>
      <trkpt lat="45.02784" lon="4.65966">
        <ele>309.63</ele>
        <time>2019-05-30T11:39:11.000Z</time>
      </trkpt>
      <trkpt lat="45.02804" lon="4.65959">
        <ele>307.76</ele>
        <time>2019-05-30T11:39:31.000Z</time>
      </trkpt>
      <trkpt lat="45.02825" lon="4.65942">
        <ele>300.83</ele>
        <time>2019-05-30T11:39:51.000Z</time>
      </trkpt>
      <trkpt lat="45.02852" lon="4.65955">
        <ele>301.39</ele>
        <time>2019-05-30T11:40:11.000Z</time>
      </trkpt>
      <trkpt lat="45.0287" lon="4.65977">
        <ele>301.95</ele>
        <time>2019-05-30T11:40:31.000Z</time>
      </trkpt>
      <trkpt lat="45.02884" lon="4.66005">
        <ele>302.75</ele>
        <time>2019-05-30T11:40:51.000Z</time>
      </trkpt>
      <trkpt lat="45.02911" lon="4.66029">
        <ele>298.7</ele>
        <time>2019-05-30T11:41:11.000Z</time>
      </trkpt>
      <trkpt lat="45.02899" lon="4.66005">
        <ele>297.19</ele>
        <time>2019-05-30T11:41:31.000Z</time>
      </trkpt>
      <trkpt lat="45.02891" lon="4.65981">
        <ele>295.44</ele>
        <time>2019-05-30T11:41:51.000Z</time>
      </trkpt>
      <trkpt lat="45.02872" lon="4.65944">
        <ele>293.41</ele>
        <time>2019-05-30T11:42:11.000Z</time>
      </trkpt>
      <trkpt lat="45.02856" lon="4.65915">
        <ele>290.04</ele>
        <time>2019-05-30T11:42:31.000Z</time>
      </trkpt>
      <trkpt lat="45.02842" lon="4.65884">
        <ele>285.59</ele>
        <time>2019-05-30T11:42:51.000Z</time>
      </trkpt>
      <trkpt lat="45.02826" lon="4.65849">
        <ele>282.01</ele>
        <time>2019-05-30T11:43:11.000Z</time>
      </trkpt>
      <trkpt lat="45.02806" lon="4.65835">
        <ele>283</ele>
        <time>2019-05-30T11:43:31.000Z</time>
      </trkpt>
      <trkpt lat="45.02808" lon="4.6582">
        <ele>281.65</ele>
        <time>2019-05-30T11:43:51.000Z</time>
      </trkpt>
      <trkpt lat="45.02815" lon="4.65808">
        <ele>280.38</ele>
        <time>2019-05-30T11:44:11.000Z</time>
      </trkpt>
      <trkpt lat="45.02822" lon="4.65795">
        <ele>279.71</ele>
        <time>2019-05-30T11:44:31.000Z</time>
      </trkpt>
      <trkpt lat="45.02827" lon="4.65767">
        <ele>280.53</ele>
        <time>2019-05-30T11:44:51.000Z</time>
      </trkpt>
      <trkpt lat="45.02849" lon="4.65745">
        <ele>283.02</ele>
        <time>2019-05-30T11:45:11.000Z</time>
      </trkpt>
      <trkpt lat="45.0287" lon="4.6574">
        <ele>284.7</ele>
        <time>2019-05-30T11:45:31.000Z</time>
      </trkpt>
      <trkpt lat="45.02897" lon="4.65735">
        <ele>287.22</ele>
        <time>2019-05-30T11:45:51.000Z</time>
      </trkpt>
      <trkpt lat="45.02923" lon="4.65727">
        <ele>290.12</ele>
        <time>2019-05-30T11:46:11.000Z</time>
      </trkpt>
      <trkpt lat="45.02947" lon="4.6572">
        <ele>292.7</ele>
        <time>2019-05-30T11:46:31.000Z</time>
      </trkpt>
      <trkpt lat="45.02974" lon="4.6573">
        <ele>292.56</ele>
        <time>2019-05-30T11:46:51.000Z</time>
      </trkpt>
      <trkpt lat="45.03" lon="4.6574">
        <ele>292.66</ele>
        <time>2019-05-30T11:47:11.000Z</time>
      </trkpt>
      <trkpt lat="45.03025" lon="4.65753">
        <ele>292.23</ele>
        <time>2019-05-30T11:47:31.000Z</time>
      </trkpt>
      <trkpt lat="45.0305" lon="4.65775">
        <ele>290.34</ele>
        <time>2019-05-30T11:47:51.000Z</time>
      </trkpt>
      <trkpt lat="45.03074" lon="4.6579">
        <ele>289.59</ele>
        <time>2019-05-30T11:48:11.000Z</time>
      </trkpt>
      <trkpt lat="45.03099" lon="4.65803">
        <ele>289.22</ele>
        <time>2019-05-30T11:48:31.000Z</time>
      </trkpt>
      <trkpt lat="45.03122" lon="4.65793">
        <ele>292.33</ele>
        <time>2019-05-30T11:48:51.000Z</time>
      </trkpt>
      <trkpt lat="45.03128" lon="4.65756">
        <ele>299.57</ele>
        <time>2019-05-30T11:49:11.000Z</time>
      </trkpt>
      <trkpt lat="45.0314" lon="4.65749">
        <ele>301.89</ele>
        <time>2019-05-30T11:49:31.000Z</time>
      </trkpt>
      <trkpt lat="45.03161" lon="4.65778">
        <ele>298.85</ele>
        <time>2019-05-30T11:49:51.000Z</time>
      </trkpt>
      <trkpt lat="45.03181" lon="4.65809">
        <ele>295.74</ele>
        <time>2019-05-30T11:50:11.000Z</time>
      </trkpt>
      <trkpt lat="45.03206" lon="4.65823">
        <ele>296.74</ele>
        <time>2019-05-30T11:50:31.000Z</time>
      </trkpt>
      <trkpt lat="45.0323" lon="4.65843">
        <ele>297.56</ele>
        <time>2019-05-30T11:50:51.000Z</time>
      </trkpt>
      <trkpt lat="45.03245" lon="4.65871">
        <ele>297.04</ele>
        <time>2019-05-30T11:51:11.000Z</time>
      </trkpt>
      <trkpt lat="45.03262" lon="4.65896">
        <ele>297.28</ele>
        <time>2019-05-30T11:51:31.000Z</time>
      </trkpt>
      <trkpt lat="45.03286" lon="4.65907">
        <ele>299.68</ele>
        <time>2019-05-30T11:51:51.000Z</time>
      </trkpt>
      <trkpt lat="45.03307" lon="4.65927">
        <ele>299.62</ele>
        <time>2019-05-30T11:52:11.000Z</time>
      </trkpt>
      <trkpt lat="45.03331" lon="4.6594">
        <ele>301.05</ele>
        <time>2019-05-30T11:52:31.000Z</time>
      </trkpt>
      <trkpt lat="45.03357" lon="4.65952">
        <ele>303.38</ele>
        <time>2019-05-30T11:52:51.000Z</time>
      </trkpt>
      <trkpt lat="45.03378" lon="4.6596">
        <ele>306.48</ele>
        <time>2019-05-30T11:53:11.000Z</time>
      </trkpt>
      <trkpt lat="45.03403" lon="4.65942">
        <ele>314.88</ele>
        <time>2019-05-30T11:53:31.000Z</time>
      </trkpt>
      <trkpt lat="45.03435" lon="4.65925">
        <ele>324.1</ele>
      </trkpt>
      <trkpt lat="45.03449" lon="4.65901">
        <ele>334.5</ele>
      </trkpt>
      <trkpt lat="45.03425" lon="4.65901">
        <ele>330.3</ele>
      </trkpt>
      <trkpt lat="45.03401" lon="4.65902">
        <ele>323.1</ele>
      </trkpt>
      <trkpt lat="45.03406" lon="4.65886">
        <ele>325</ele>
      </trkpt>
      <trkpt lat="45.03413" lon="4.65863">
        <ele>329.4</ele>
      </trkpt>
      <trkpt lat="45.03431" lon="4.65846">
        <ele>339.8</ele>
      </trkpt>
      <trkpt lat="45.03447" lon="4.65823">
        <ele>351.9</ele>
      </trkpt>
      <trkpt lat="45.0345" lon="4.6579">
        <ele>356.1</ele>
      </trkpt>
      <trkpt lat="45.03449" lon="4.65766">
        <ele>358.6</ele>
      </trkpt>
      <trkpt lat="45.03452" lon="4.65746">
        <ele>369</ele>
      </trkpt>
      <trkpt lat="45.03454" lon="4.65722">
        <ele>370.4</ele>
      </trkpt>
      <trkpt lat="45.03471" lon="4.65691">
        <ele>373.1</ele>
      </trkpt>
      <trkpt lat="45.03492" lon="4.65666">
        <ele>378.8</ele>
      </trkpt>
      <trkpt lat="45.03503" lon="4.65616">
        <ele>383.9</ele>
      </trkpt>
      <trkpt lat="45.03527" lon="4.65599">
        <ele>384.9</ele>
      </trkpt>
      <trkpt lat="45.03549" lon="4.65596">
        <ele>386.6</ele>
      </trkpt>
      <trkpt lat="45.03569" lon="4.65599">
        <ele>389.04</ele>
      </trkpt>
      <trkpt lat="45.03571" lon="4.65568">
        <ele>389.83</ele>
      </trkpt>
      <trkpt lat="45.03566" lon="4.65529">
        <ele>390.71</ele>
      </trkpt>
      <trkpt lat="45.03567" lon="4.65495">
        <ele>392.99</ele>
      </trkpt>
      <trkpt lat="45.03555" lon="4.6546">
        <ele>395.65</ele>
      </trkpt>
      <trkpt lat="45.03558" lon="4.65428">
        <ele>399.62</ele>
      </trkpt>
      <trkpt lat="45.03555" lon="4.65394">
        <ele>402.93</ele>
      </trkpt>
      <trkpt lat="45.03547" lon="4.65358">
        <ele>405.49</ele>
      </trkpt>
      <trkpt lat="45.03549" lon="4.65327">
        <ele>408.19</ele>
      </trkpt>
      <trkpt lat="45.03564" lon="4.65293">
        <ele>411.98</ele>
      </trkpt>
      <trkpt lat="45.03583" lon="4.6528">
        <ele>414.78</ele>
      </trkpt>
      <trkpt lat="45.03606" lon="4.65269">
        <ele>416.95</ele>
      </trkpt>
      <trkpt lat="45.0363" lon="4.65272">
        <ele>418.15</ele>
      </trkpt>
      <trkpt lat="45.03638" lon="4.65296">
        <ele>418.48</ele>
      </trkpt>
      <trkpt lat="45.03652" lon="4.65316">
        <ele>418.83</ele>
      </trkpt>
      <trkpt lat="45.03657" lon="4.65324">
        <ele>418.86</ele>
      </trkpt>
    </trkseg>
  </trk>
</gpx>